<?xml version="1.0" encoding="UTF-8" standalone="no" ?>
<gpx xmlns="http://www.topografix.com/GPX/1/1" xmlns:xsi="http://www.w3.org/2001/XMLSchema-instance" xsi:schemaLocation="http://www.topografix.com/GPX/1/1 http://www.topografix.com/GPX/1/1/gpx.xsd" version="1.1" creator="VisuGPX - https://www.visugpx.com">
  <metadata>
    <name>Parcours 1</name>
    <desc><![CDATA[Parcours VTT nº1]]></desc>
  </metadata>
  <trk>
    <name><![CDATA[01/07/2014 8:48]]></name>
    <desc><![CDATA[Parcours VTT nº1]]></desc>
    <trkseg>
      <trkpt lat="45.22786" lon="6.40586">
        <ele>1702.7</ele>
        <time>2014-07-01T06:48:06.362Z</time>
      </trkpt>
      <trkpt lat="45.22786" lon="6.40586">
        <ele>1702.7</ele>
        <time>2014-07-01T06:48:36.623Z</time>
      </trkpt>
      <trkpt lat="45.22787" lon="6.40581">
        <ele>1692.8</ele>
        <time>2014-07-01T06:48:37.622Z</time>
      </trkpt>
      <trkpt lat="45.22789" lon="6.40578">
        <ele>1682.6</ele>
        <time>2014-07-01T06:49:17.703Z</time>
      </trkpt>
      <trkpt lat="45.22793" lon="6.40578">
        <ele>1683.5</ele>
        <time>2014-07-01T06:49:18.701Z</time>
      </trkpt>
      <trkpt lat="45.228" lon="6.40572">
        <ele>1680.8</ele>
        <time>2014-07-01T06:49:26.715Z</time>
      </trkpt>
      <trkpt lat="45.22802" lon="6.40567">
        <ele>1679.9</ele>
        <time>2014-07-01T06:49:27.705Z</time>
      </trkpt>
      <trkpt lat="45.22806" lon="6.40556">
        <ele>1678.7</ele>
        <time>2014-07-01T06:49:30.725Z</time>
      </trkpt>
      <trkpt lat="45.22806" lon="6.40552">
        <ele>1679</ele>
        <time>2014-07-01T06:49:31.730Z</time>
      </trkpt>
      <trkpt lat="45.22804" lon="6.4054">
        <ele>1677.5</ele>
        <time>2014-07-01T06:49:34.700Z</time>
      </trkpt>
      <trkpt lat="45.22803" lon="6.40537">
        <ele>1677.1</ele>
        <time>2014-07-01T06:49:35.696Z</time>
      </trkpt>
      <trkpt lat="45.22798" lon="6.40531">
        <ele>1676.4</ele>
        <time>2014-07-01T06:49:37.727Z</time>
      </trkpt>
      <trkpt lat="45.22795" lon="6.40529">
        <ele>1676.1</ele>
        <time>2014-07-01T06:49:38.746Z</time>
      </trkpt>
      <trkpt lat="45.22788" lon="6.40526">
        <ele>1675.3</ele>
        <time>2014-07-01T06:49:40.695Z</time>
      </trkpt>
      <trkpt lat="45.22785" lon="6.40525">
        <ele>1674.9</ele>
        <time>2014-07-01T06:49:41.697Z</time>
      </trkpt>
      <trkpt lat="45.22777" lon="6.40528">
        <ele>1673.4</ele>
        <time>2014-07-01T06:49:44.716Z</time>
      </trkpt>
      <trkpt lat="45.22775" lon="6.40529">
        <ele>1673.2</ele>
        <time>2014-07-01T06:49:45.713Z</time>
      </trkpt>
      <trkpt lat="45.22771" lon="6.40534">
        <ele>1672.9</ele>
        <time>2014-07-01T06:49:47.728Z</time>
      </trkpt>
      <trkpt lat="45.22769" lon="6.40539">
        <ele>1672.7</ele>
        <time>2014-07-01T06:49:48.709Z</time>
      </trkpt>
      <trkpt lat="45.22763" lon="6.40544">
        <ele>1671.4</ele>
        <time>2014-07-01T06:49:50.726Z</time>
      </trkpt>
      <trkpt lat="45.22759" lon="6.40546">
        <ele>1671.1</ele>
        <time>2014-07-01T06:49:51.707Z</time>
      </trkpt>
      <trkpt lat="45.22752" lon="6.40541">
        <ele>1670.8</ele>
        <time>2014-07-01T06:49:54.729Z</time>
      </trkpt>
      <trkpt lat="45.22751" lon="6.40536">
        <ele>1670.5</ele>
        <time>2014-07-01T06:49:55.728Z</time>
      </trkpt>
      <trkpt lat="45.22747" lon="6.40527">
        <ele>1669.8</ele>
        <time>2014-07-01T06:49:58.713Z</time>
      </trkpt>
      <trkpt lat="45.22747" lon="6.40523">
        <ele>1669.7</ele>
        <time>2014-07-01T06:49:59.725Z</time>
      </trkpt>
      <trkpt lat="45.22744" lon="6.40512">
        <ele>1669.3</ele>
        <time>2014-07-01T06:50:02.729Z</time>
      </trkpt>
      <trkpt lat="45.22741" lon="6.40511">
        <ele>1669.3</ele>
        <time>2014-07-01T06:50:03.710Z</time>
      </trkpt>
      <trkpt lat="45.22733" lon="6.4051">
        <ele>1668.7</ele>
        <time>2014-07-01T06:50:05.727Z</time>
      </trkpt>
      <trkpt lat="45.22729" lon="6.4051">
        <ele>1668.4</ele>
        <time>2014-07-01T06:50:06.703Z</time>
      </trkpt>
      <trkpt lat="45.22722" lon="6.40507">
        <ele>1667.5</ele>
        <time>2014-07-01T06:50:08.714Z</time>
      </trkpt>
      <trkpt lat="45.22719" lon="6.40503">
        <ele>1667.1</ele>
        <time>2014-07-01T06:50:09.704Z</time>
      </trkpt>
      <trkpt lat="45.22715" lon="6.40495">
        <ele>1666.7</ele>
        <time>2014-07-01T06:50:11.705Z</time>
      </trkpt>
      <trkpt lat="45.22713" lon="6.40492">
        <ele>1666.5</ele>
        <time>2014-07-01T06:50:12.700Z</time>
      </trkpt>
      <trkpt lat="45.22707" lon="6.40485">
        <ele>1666.3</ele>
        <time>2014-07-01T06:50:14.730Z</time>
      </trkpt>
      <trkpt lat="45.22703" lon="6.40482">
        <ele>1666.3</ele>
        <time>2014-07-01T06:50:15.707Z</time>
      </trkpt>
      <trkpt lat="45.22699" lon="6.40479">
        <ele>1666.2</ele>
        <time>2014-07-01T06:50:16.712Z</time>
      </trkpt>
      <trkpt lat="45.22695" lon="6.40477">
        <ele>1666</ele>
        <time>2014-07-01T06:50:17.700Z</time>
      </trkpt>
      <trkpt lat="45.2269" lon="6.40476">
        <ele>1665.9</ele>
        <time>2014-07-01T06:50:18.700Z</time>
      </trkpt>
      <trkpt lat="45.22685" lon="6.40476">
        <ele>1665.6</ele>
        <time>2014-07-01T06:50:19.695Z</time>
      </trkpt>
      <trkpt lat="45.2268" lon="6.40476">
        <ele>1665.4</ele>
        <time>2014-07-01T06:50:20.708Z</time>
      </trkpt>
      <trkpt lat="45.22676" lon="6.40477">
        <ele>1665.4</ele>
        <time>2014-07-01T06:50:21.707Z</time>
      </trkpt>
      <trkpt lat="45.22671" lon="6.40478">
        <ele>1665.4</ele>
        <time>2014-07-01T06:50:22.712Z</time>
      </trkpt>
      <trkpt lat="45.22667" lon="6.40479">
        <ele>1665.3</ele>
        <time>2014-07-01T06:50:23.710Z</time>
      </trkpt>
      <trkpt lat="45.22659" lon="6.40482">
        <ele>1665.2</ele>
        <time>2014-07-01T06:50:25.695Z</time>
      </trkpt>
      <trkpt lat="45.22656" lon="6.40483">
        <ele>1665.2</ele>
        <time>2014-07-01T06:50:26.725Z</time>
      </trkpt>
      <trkpt lat="45.2265" lon="6.40485">
        <ele>1665.2</ele>
        <time>2014-07-01T06:50:28.710Z</time>
      </trkpt>
      <trkpt lat="45.22646" lon="6.40486">
        <ele>1665.2</ele>
        <time>2014-07-01T06:50:29.711Z</time>
      </trkpt>
      <trkpt lat="45.22639" lon="6.40487">
        <ele>1665.3</ele>
        <time>2014-07-01T06:50:31.698Z</time>
      </trkpt>
      <trkpt lat="45.22636" lon="6.40487">
        <ele>1665.4</ele>
        <time>2014-07-01T06:50:32.713Z</time>
      </trkpt>
      <trkpt lat="45.2263" lon="6.40487">
        <ele>1665.6</ele>
        <time>2014-07-01T06:50:34.733Z</time>
      </trkpt>
      <trkpt lat="45.22627" lon="6.40486">
        <ele>1665.7</ele>
        <time>2014-07-01T06:50:35.713Z</time>
      </trkpt>
      <trkpt lat="45.22619" lon="6.40484">
        <ele>1665.5</ele>
        <time>2014-07-01T06:50:38.728Z</time>
      </trkpt>
      <trkpt lat="45.22616" lon="6.40481">
        <ele>1665.4</ele>
        <time>2014-07-01T06:50:39.714Z</time>
      </trkpt>
      <trkpt lat="45.22611" lon="6.40473">
        <ele>1665.3</ele>
        <time>2014-07-01T06:50:42.712Z</time>
      </trkpt>
      <trkpt lat="45.22608" lon="6.40471">
        <ele>1665.2</ele>
        <time>2014-07-01T06:50:43.714Z</time>
      </trkpt>
      <trkpt lat="45.22603" lon="6.40466">
        <ele>1665</ele>
        <time>2014-07-01T06:50:45.757Z</time>
      </trkpt>
      <trkpt lat="45.22601" lon="6.40463">
        <ele>1664.8</ele>
        <time>2014-07-01T06:50:46.734Z</time>
      </trkpt>
      <trkpt lat="45.22595" lon="6.40457">
        <ele>1664.9</ele>
        <time>2014-07-01T06:50:48.746Z</time>
      </trkpt>
      <trkpt lat="45.22592" lon="6.40455">
        <ele>1664.9</ele>
        <time>2014-07-01T06:50:49.730Z</time>
      </trkpt>
      <trkpt lat="45.22586" lon="6.4045">
        <ele>1665.1</ele>
        <time>2014-07-01T06:50:51.708Z</time>
      </trkpt>
      <trkpt lat="45.22584" lon="6.40447">
        <ele>1665</ele>
        <time>2014-07-01T06:50:52.688Z</time>
      </trkpt>
      <trkpt lat="45.22578" lon="6.40442">
        <ele>1665</ele>
        <time>2014-07-01T06:50:54.729Z</time>
      </trkpt>
      <trkpt lat="45.22576" lon="6.40439">
        <ele>1665</ele>
        <time>2014-07-01T06:50:55.743Z</time>
      </trkpt>
      <trkpt lat="45.2257" lon="6.40433">
        <ele>1665.3</ele>
        <time>2014-07-01T06:50:57.731Z</time>
      </trkpt>
      <trkpt lat="45.22566" lon="6.4043">
        <ele>1665.4</ele>
        <time>2014-07-01T06:50:58.702Z</time>
      </trkpt>
      <trkpt lat="45.22559" lon="6.40426">
        <ele>1665.6</ele>
        <time>2014-07-01T06:51:00.702Z</time>
      </trkpt>
      <trkpt lat="45.22556" lon="6.40425">
        <ele>1665.8</ele>
        <time>2014-07-01T06:51:01.729Z</time>
      </trkpt>
      <trkpt lat="45.22548" lon="6.40425">
        <ele>1666.2</ele>
        <time>2014-07-01T06:51:03.707Z</time>
      </trkpt>
      <trkpt lat="45.22544" lon="6.40427">
        <ele>1666.5</ele>
        <time>2014-07-01T06:51:04.703Z</time>
      </trkpt>
      <trkpt lat="45.22538" lon="6.40433">
        <ele>1667</ele>
        <time>2014-07-01T06:51:06.711Z</time>
      </trkpt>
      <trkpt lat="45.22535" lon="6.40436">
        <ele>1667.1</ele>
        <time>2014-07-01T06:51:07.707Z</time>
      </trkpt>
      <trkpt lat="45.22531" lon="6.40444">
        <ele>1667.2</ele>
        <time>2014-07-01T06:51:09.714Z</time>
      </trkpt>
      <trkpt lat="45.2253" lon="6.40448">
        <ele>1667.2</ele>
        <time>2014-07-01T06:51:10.716Z</time>
      </trkpt>
      <trkpt lat="45.22527" lon="6.40456">
        <ele>1668</ele>
        <time>2014-07-01T06:51:12.710Z</time>
      </trkpt>
      <trkpt lat="45.22526" lon="6.4046">
        <ele>1668.6</ele>
        <time>2014-07-01T06:51:13.717Z</time>
      </trkpt>
      <trkpt lat="45.22523" lon="6.40468">
        <ele>1669</ele>
        <time>2014-07-01T06:51:15.705Z</time>
      </trkpt>
      <trkpt lat="45.22521" lon="6.40472">
        <ele>1669.2</ele>
        <time>2014-07-01T06:51:16.713Z</time>
      </trkpt>
      <trkpt lat="45.22517" lon="6.40483">
        <ele>1669.7</ele>
        <time>2014-07-01T06:51:18.729Z</time>
      </trkpt>
      <trkpt lat="45.22515" lon="6.40488">
        <ele>1669.8</ele>
        <time>2014-07-01T06:51:19.728Z</time>
      </trkpt>
      <trkpt lat="45.22512" lon="6.40497">
        <ele>1670.2</ele>
        <time>2014-07-01T06:51:21.708Z</time>
      </trkpt>
      <trkpt lat="45.2251" lon="6.40502">
        <ele>1670.4</ele>
        <time>2014-07-01T06:51:22.715Z</time>
      </trkpt>
      <trkpt lat="45.22506" lon="6.4051">
        <ele>1670.6</ele>
        <time>2014-07-01T06:51:24.714Z</time>
      </trkpt>
      <trkpt lat="45.22504" lon="6.40514">
        <ele>1670.7</ele>
        <time>2014-07-01T06:51:25.711Z</time>
      </trkpt>
      <trkpt lat="45.225" lon="6.40521">
        <ele>1671.1</ele>
        <time>2014-07-01T06:51:27.687Z</time>
      </trkpt>
      <trkpt lat="45.22498" lon="6.40524">
        <ele>1671.2</ele>
        <time>2014-07-01T06:51:28.728Z</time>
      </trkpt>
      <trkpt lat="45.22495" lon="6.40531">
        <ele>1671.6</ele>
        <time>2014-07-01T06:51:30.747Z</time>
      </trkpt>
      <trkpt lat="45.22493" lon="6.40534">
        <ele>1671.8</ele>
        <time>2014-07-01T06:51:31.710Z</time>
      </trkpt>
      <trkpt lat="45.22488" lon="6.40542">
        <ele>1672.4</ele>
        <time>2014-07-01T06:51:33.726Z</time>
      </trkpt>
      <trkpt lat="45.22486" lon="6.40546">
        <ele>1672.7</ele>
        <time>2014-07-01T06:51:34.713Z</time>
      </trkpt>
      <trkpt lat="45.22482" lon="6.40554">
        <ele>1673.1</ele>
        <time>2014-07-01T06:51:36.708Z</time>
      </trkpt>
      <trkpt lat="45.2248" lon="6.40558">
        <ele>1673.2</ele>
        <time>2014-07-01T06:51:37.728Z</time>
      </trkpt>
      <trkpt lat="45.22475" lon="6.40566">
        <ele>1673.5</ele>
        <time>2014-07-01T06:51:39.728Z</time>
      </trkpt>
      <trkpt lat="45.22472" lon="6.40569">
        <ele>1673.7</ele>
        <time>2014-07-01T06:51:40.715Z</time>
      </trkpt>
      <trkpt lat="45.22468" lon="6.40577">
        <ele>1674</ele>
        <time>2014-07-01T06:51:42.714Z</time>
      </trkpt>
      <trkpt lat="45.22465" lon="6.40581">
        <ele>1674.2</ele>
        <time>2014-07-01T06:51:43.712Z</time>
      </trkpt>
      <trkpt lat="45.22459" lon="6.40589">
        <ele>1674.6</ele>
        <time>2014-07-01T06:51:45.710Z</time>
      </trkpt>
      <trkpt lat="45.22456" lon="6.40592">
        <ele>1674.8</ele>
        <time>2014-07-01T06:51:46.715Z</time>
      </trkpt>
      <trkpt lat="45.22449" lon="6.40599">
        <ele>1675.3</ele>
        <time>2014-07-01T06:51:48.717Z</time>
      </trkpt>
      <trkpt lat="45.22446" lon="6.40602">
        <ele>1675.6</ele>
        <time>2014-07-01T06:51:49.730Z</time>
      </trkpt>
      <trkpt lat="45.2244" lon="6.40609">
        <ele>1676</ele>
        <time>2014-07-01T06:51:51.716Z</time>
      </trkpt>
      <trkpt lat="45.22436" lon="6.40612">
        <ele>1676.1</ele>
        <time>2014-07-01T06:51:52.717Z</time>
      </trkpt>
      <trkpt lat="45.2243" lon="6.40618">
        <ele>1676.5</ele>
        <time>2014-07-01T06:51:54.697Z</time>
      </trkpt>
      <trkpt lat="45.22428" lon="6.40621">
        <ele>1676.7</ele>
        <time>2014-07-01T06:51:55.697Z</time>
      </trkpt>
      <trkpt lat="45.22423" lon="6.40627">
        <ele>1676.8</ele>
        <time>2014-07-01T06:51:57.697Z</time>
      </trkpt>
      <trkpt lat="45.22422" lon="6.40631">
        <ele>1676.9</ele>
        <time>2014-07-01T06:51:58.708Z</time>
      </trkpt>
      <trkpt lat="45.22418" lon="6.40638">
        <ele>1677</ele>
        <time>2014-07-01T06:52:00.702Z</time>
      </trkpt>
      <trkpt lat="45.22417" lon="6.40642">
        <ele>1677.2</ele>
        <time>2014-07-01T06:52:01.711Z</time>
      </trkpt>
      <trkpt lat="45.22414" lon="6.40651">
        <ele>1677.5</ele>
        <time>2014-07-01T06:52:03.704Z</time>
      </trkpt>
      <trkpt lat="45.22413" lon="6.40656">
        <ele>1677.7</ele>
        <time>2014-07-01T06:52:04.714Z</time>
      </trkpt>
      <trkpt lat="45.22411" lon="6.40664">
        <ele>1677.9</ele>
        <time>2014-07-01T06:52:06.718Z</time>
      </trkpt>
      <trkpt lat="45.2241" lon="6.40669">
        <ele>1678.1</ele>
        <time>2014-07-01T06:52:07.713Z</time>
      </trkpt>
      <trkpt lat="45.22408" lon="6.40677">
        <ele>1678.2</ele>
        <time>2014-07-01T06:52:09.716Z</time>
      </trkpt>
      <trkpt lat="45.22408" lon="6.40681">
        <ele>1678.2</ele>
        <time>2014-07-01T06:52:10.695Z</time>
      </trkpt>
      <trkpt lat="45.22407" lon="6.4069">
        <ele>1678.2</ele>
        <time>2014-07-01T06:52:12.718Z</time>
      </trkpt>
      <trkpt lat="45.22406" lon="6.40694">
        <ele>1678.4</ele>
        <time>2014-07-01T06:52:13.747Z</time>
      </trkpt>
      <trkpt lat="45.22406" lon="6.40704">
        <ele>1678.5</ele>
        <time>2014-07-01T06:52:15.734Z</time>
      </trkpt>
      <trkpt lat="45.22406" lon="6.4071">
        <ele>1678.6</ele>
        <time>2014-07-01T06:52:16.731Z</time>
      </trkpt>
      <trkpt lat="45.22404" lon="6.40722">
        <ele>1678.7</ele>
        <time>2014-07-01T06:52:18.715Z</time>
      </trkpt>
      <trkpt lat="45.22403" lon="6.40728">
        <ele>1678.6</ele>
        <time>2014-07-01T06:52:19.708Z</time>
      </trkpt>
      <trkpt lat="45.22402" lon="6.40734">
        <ele>1678.6</ele>
        <time>2014-07-01T06:52:20.722Z</time>
      </trkpt>
      <trkpt lat="45.22402" lon="6.40741">
        <ele>1678.8</ele>
        <time>2014-07-01T06:52:21.715Z</time>
      </trkpt>
      <trkpt lat="45.22401" lon="6.40749">
        <ele>1678.9</ele>
        <time>2014-07-01T06:52:22.703Z</time>
      </trkpt>
      <trkpt lat="45.224" lon="6.40758">
        <ele>1678.9</ele>
        <time>2014-07-01T06:52:23.730Z</time>
      </trkpt>
      <trkpt lat="45.22398" lon="6.40766">
        <ele>1678.9</ele>
        <time>2014-07-01T06:52:24.743Z</time>
      </trkpt>
      <trkpt lat="45.22397" lon="6.40772">
        <ele>1678.9</ele>
        <time>2014-07-01T06:52:25.734Z</time>
      </trkpt>
      <trkpt lat="45.22396" lon="6.40779">
        <ele>1678.9</ele>
        <time>2014-07-01T06:52:26.764Z</time>
      </trkpt>
      <trkpt lat="45.22395" lon="6.40787">
        <ele>1678.8</ele>
        <time>2014-07-01T06:52:27.741Z</time>
      </trkpt>
      <trkpt lat="45.22394" lon="6.40795">
        <ele>1678.6</ele>
        <time>2014-07-01T06:52:28.734Z</time>
      </trkpt>
      <trkpt lat="45.22393" lon="6.40802">
        <ele>1678.5</ele>
        <time>2014-07-01T06:52:29.747Z</time>
      </trkpt>
      <trkpt lat="45.22392" lon="6.40809">
        <ele>1678.5</ele>
        <time>2014-07-01T06:52:30.691Z</time>
      </trkpt>
      <trkpt lat="45.22391" lon="6.40815">
        <ele>1678.3</ele>
        <time>2014-07-01T06:52:31.729Z</time>
      </trkpt>
      <trkpt lat="45.2239" lon="6.40822">
        <ele>1678.1</ele>
        <time>2014-07-01T06:52:32.719Z</time>
      </trkpt>
      <trkpt lat="45.22389" lon="6.4083">
        <ele>1678.1</ele>
        <time>2014-07-01T06:52:33.728Z</time>
      </trkpt>
      <trkpt lat="45.22388" lon="6.40837">
        <ele>1677.9</ele>
        <time>2014-07-01T06:52:34.718Z</time>
      </trkpt>
      <trkpt lat="45.22387" lon="6.40844">
        <ele>1677.7</ele>
        <time>2014-07-01T06:52:35.728Z</time>
      </trkpt>
      <trkpt lat="45.22385" lon="6.40856">
        <ele>1677.6</ele>
        <time>2014-07-01T06:52:37.730Z</time>
      </trkpt>
      <trkpt lat="45.22384" lon="6.40861">
        <ele>1677.6</ele>
        <time>2014-07-01T06:52:38.743Z</time>
      </trkpt>
      <trkpt lat="45.2238" lon="6.40871">
        <ele>1677.4</ele>
        <time>2014-07-01T06:52:40.720Z</time>
      </trkpt>
      <trkpt lat="45.22378" lon="6.40876">
        <ele>1677.4</ele>
        <time>2014-07-01T06:52:41.713Z</time>
      </trkpt>
      <trkpt lat="45.22375" lon="6.40884">
        <ele>1677.3</ele>
        <time>2014-07-01T06:52:43.704Z</time>
      </trkpt>
      <trkpt lat="45.22373" lon="6.40889">
        <ele>1677.4</ele>
        <time>2014-07-01T06:52:44.717Z</time>
      </trkpt>
      <trkpt lat="45.22371" lon="6.40899">
        <ele>1677.4</ele>
        <time>2014-07-01T06:52:46.723Z</time>
      </trkpt>
      <trkpt lat="45.2237" lon="6.40904">
        <ele>1677.4</ele>
        <time>2014-07-01T06:52:47.707Z</time>
      </trkpt>
      <trkpt lat="45.22368" lon="6.40914">
        <ele>1677.2</ele>
        <time>2014-07-01T06:52:49.711Z</time>
      </trkpt>
      <trkpt lat="45.22367" lon="6.40919">
        <ele>1677.1</ele>
        <time>2014-07-01T06:52:50.701Z</time>
      </trkpt>
      <trkpt lat="45.22365" lon="6.4093">
        <ele>1677</ele>
        <time>2014-07-01T06:52:52.710Z</time>
      </trkpt>
      <trkpt lat="45.22364" lon="6.40936">
        <ele>1676.9</ele>
        <time>2014-07-01T06:52:53.714Z</time>
      </trkpt>
      <trkpt lat="45.22362" lon="6.40948">
        <ele>1676.9</ele>
        <time>2014-07-01T06:52:55.707Z</time>
      </trkpt>
      <trkpt lat="45.22361" lon="6.40955">
        <ele>1676.8</ele>
        <time>2014-07-01T06:52:56.729Z</time>
      </trkpt>
      <trkpt lat="45.22359" lon="6.40967">
        <ele>1676.7</ele>
        <time>2014-07-01T06:52:58.698Z</time>
      </trkpt>
      <trkpt lat="45.22358" lon="6.40973">
        <ele>1676.6</ele>
        <time>2014-07-01T06:52:59.688Z</time>
      </trkpt>
      <trkpt lat="45.22356" lon="6.40985">
        <ele>1676.4</ele>
        <time>2014-07-01T06:53:01.681Z</time>
      </trkpt>
      <trkpt lat="45.22356" lon="6.40992">
        <ele>1676.4</ele>
        <time>2014-07-01T06:53:02.714Z</time>
      </trkpt>
      <trkpt lat="45.22356" lon="6.41">
        <ele>1676.2</ele>
        <time>2014-07-01T06:53:03.677Z</time>
      </trkpt>
      <trkpt lat="45.22355" lon="6.41006">
        <ele>1676</ele>
        <time>2014-07-01T06:53:04.694Z</time>
      </trkpt>
      <trkpt lat="45.22355" lon="6.41013">
        <ele>1676</ele>
        <time>2014-07-01T06:53:05.699Z</time>
      </trkpt>
      <trkpt lat="45.22354" lon="6.41019">
        <ele>1675.6</ele>
        <time>2014-07-01T06:53:06.696Z</time>
      </trkpt>
      <trkpt lat="45.22354" lon="6.41026">
        <ele>1675.8</ele>
        <time>2014-07-01T06:53:07.680Z</time>
      </trkpt>
      <trkpt lat="45.22353" lon="6.41034">
        <ele>1675.6</ele>
        <time>2014-07-01T06:53:08.715Z</time>
      </trkpt>
      <trkpt lat="45.22353" lon="6.41041">
        <ele>1675.5</ele>
        <time>2014-07-01T06:53:09.700Z</time>
      </trkpt>
      <trkpt lat="45.22353" lon="6.41047">
        <ele>1675.4</ele>
        <time>2014-07-01T06:53:10.726Z</time>
      </trkpt>
      <trkpt lat="45.22351" lon="6.41059">
        <ele>1675</ele>
        <time>2014-07-01T06:53:12.722Z</time>
      </trkpt>
      <trkpt lat="45.22349" lon="6.41065">
        <ele>1674.9</ele>
        <time>2014-07-01T06:53:13.710Z</time>
      </trkpt>
      <trkpt lat="45.22345" lon="6.41075">
        <ele>1674</ele>
        <time>2014-07-01T06:53:15.703Z</time>
      </trkpt>
      <trkpt lat="45.22342" lon="6.4108">
        <ele>1673.5</ele>
        <time>2014-07-01T06:53:16.708Z</time>
      </trkpt>
      <trkpt lat="45.22337" lon="6.41088">
        <ele>1672.5</ele>
        <time>2014-07-01T06:53:18.737Z</time>
      </trkpt>
      <trkpt lat="45.22335" lon="6.41092">
        <ele>1672.3</ele>
        <time>2014-07-01T06:53:19.701Z</time>
      </trkpt>
      <trkpt lat="45.2233" lon="6.41098">
        <ele>1671.6</ele>
        <time>2014-07-01T06:53:21.705Z</time>
      </trkpt>
      <trkpt lat="45.22328" lon="6.41102">
        <ele>1671.4</ele>
        <time>2014-07-01T06:53:22.703Z</time>
      </trkpt>
      <trkpt lat="45.22324" lon="6.41109">
        <ele>1671.1</ele>
        <time>2014-07-01T06:53:24.690Z</time>
      </trkpt>
      <trkpt lat="45.22322" lon="6.41113">
        <ele>1671</ele>
        <time>2014-07-01T06:53:25.754Z</time>
      </trkpt>
      <trkpt lat="45.22316" lon="6.41119">
        <ele>1670.6</ele>
        <time>2014-07-01T06:53:27.710Z</time>
      </trkpt>
      <trkpt lat="45.22315" lon="6.41123">
        <ele>1670.6</ele>
        <time>2014-07-01T06:53:28.731Z</time>
      </trkpt>
      <trkpt lat="45.22312" lon="6.41131">
        <ele>1670.4</ele>
        <time>2014-07-01T06:53:30.705Z</time>
      </trkpt>
      <trkpt lat="45.22311" lon="6.41137">
        <ele>1670.3</ele>
        <time>2014-07-01T06:53:31.686Z</time>
      </trkpt>
      <trkpt lat="45.2231" lon="6.41145">
        <ele>1669.7</ele>
        <time>2014-07-01T06:53:33.720Z</time>
      </trkpt>
      <trkpt lat="45.2231" lon="6.41151">
        <ele>1669.5</ele>
        <time>2014-07-01T06:53:34.713Z</time>
      </trkpt>
      <trkpt lat="45.2231" lon="6.41158">
        <ele>1669.3</ele>
        <time>2014-07-01T06:53:35.723Z</time>
      </trkpt>
      <trkpt lat="45.2231" lon="6.41164">
        <ele>1669.2</ele>
        <time>2014-07-01T06:53:36.676Z</time>
      </trkpt>
      <trkpt lat="45.2231" lon="6.4117">
        <ele>1668.8</ele>
        <time>2014-07-01T06:53:37.710Z</time>
      </trkpt>
      <trkpt lat="45.22311" lon="6.41177">
        <ele>1668.9</ele>
        <time>2014-07-01T06:53:38.709Z</time>
      </trkpt>
      <trkpt lat="45.22311" lon="6.41184">
        <ele>1669</ele>
        <time>2014-07-01T06:53:39.688Z</time>
      </trkpt>
      <trkpt lat="45.22312" lon="6.4119">
        <ele>1669.1</ele>
        <time>2014-07-01T06:53:40.694Z</time>
      </trkpt>
      <trkpt lat="45.22315" lon="6.41199">
        <ele>1669.3</ele>
        <time>2014-07-01T06:53:42.695Z</time>
      </trkpt>
      <trkpt lat="45.22316" lon="6.41204">
        <ele>1669.3</ele>
        <time>2014-07-01T06:53:43.685Z</time>
      </trkpt>
      <trkpt lat="45.22319" lon="6.41213">
        <ele>1669.6</ele>
        <time>2014-07-01T06:53:45.698Z</time>
      </trkpt>
      <trkpt lat="45.2232" lon="6.41217">
        <ele>1669.7</ele>
        <time>2014-07-01T06:53:46.708Z</time>
      </trkpt>
      <trkpt lat="45.22321" lon="6.41226">
        <ele>1669.9</ele>
        <time>2014-07-01T06:53:48.701Z</time>
      </trkpt>
      <trkpt lat="45.22321" lon="6.4123">
        <ele>1669.8</ele>
        <time>2014-07-01T06:53:49.702Z</time>
      </trkpt>
      <trkpt lat="45.22319" lon="6.4124">
        <ele>1670</ele>
        <time>2014-07-01T06:53:51.728Z</time>
      </trkpt>
      <trkpt lat="45.22318" lon="6.41245">
        <ele>1669.9</ele>
        <time>2014-07-01T06:53:52.707Z</time>
      </trkpt>
      <trkpt lat="45.22316" lon="6.41251">
        <ele>1670</ele>
        <time>2014-07-01T06:53:53.703Z</time>
      </trkpt>
      <trkpt lat="45.22313" lon="6.41258">
        <ele>1670.1</ele>
        <time>2014-07-01T06:53:54.717Z</time>
      </trkpt>
      <trkpt lat="45.22309" lon="6.41269">
        <ele>1670.2</ele>
        <time>2014-07-01T06:53:56.747Z</time>
      </trkpt>
      <trkpt lat="45.22306" lon="6.41274">
        <ele>1670.2</ele>
        <time>2014-07-01T06:53:57.721Z</time>
      </trkpt>
      <trkpt lat="45.22304" lon="6.4128">
        <ele>1670.1</ele>
        <time>2014-07-01T06:53:58.697Z</time>
      </trkpt>
      <trkpt lat="45.22301" lon="6.41288">
        <ele>1670.1</ele>
        <time>2014-07-01T06:53:59.709Z</time>
      </trkpt>
      <trkpt lat="45.22298" lon="6.41296">
        <ele>1670.1</ele>
        <time>2014-07-01T06:54:00.711Z</time>
      </trkpt>
      <trkpt lat="45.22297" lon="6.41304">
        <ele>1670.7</ele>
        <time>2014-07-01T06:54:01.684Z</time>
      </trkpt>
      <trkpt lat="45.22294" lon="6.41311">
        <ele>1670.8</ele>
        <time>2014-07-01T06:54:02.731Z</time>
      </trkpt>
      <trkpt lat="45.22291" lon="6.41318">
        <ele>1670.8</ele>
        <time>2014-07-01T06:54:03.720Z</time>
      </trkpt>
      <trkpt lat="45.22287" lon="6.41324">
        <ele>1670.7</ele>
        <time>2014-07-01T06:54:04.698Z</time>
      </trkpt>
      <trkpt lat="45.22285" lon="6.41329">
        <ele>1670.6</ele>
        <time>2014-07-01T06:54:05.705Z</time>
      </trkpt>
      <trkpt lat="45.2228" lon="6.41336">
        <ele>1670.5</ele>
        <time>2014-07-01T06:54:07.706Z</time>
      </trkpt>
      <trkpt lat="45.22277" lon="6.41341">
        <ele>1670.5</ele>
        <time>2014-07-01T06:54:08.719Z</time>
      </trkpt>
      <trkpt lat="45.22272" lon="6.41346">
        <ele>1670.1</ele>
        <time>2014-07-01T06:54:10.709Z</time>
      </trkpt>
      <trkpt lat="45.22269" lon="6.41349">
        <ele>1670</ele>
        <time>2014-07-01T06:54:11.712Z</time>
      </trkpt>
      <trkpt lat="45.22263" lon="6.41355">
        <ele>1670</ele>
        <time>2014-07-01T06:54:13.705Z</time>
      </trkpt>
      <trkpt lat="45.2226" lon="6.4136">
        <ele>1670</ele>
        <time>2014-07-01T06:54:14.715Z</time>
      </trkpt>
      <trkpt lat="45.22254" lon="6.41366">
        <ele>1670</ele>
        <time>2014-07-01T06:54:16.706Z</time>
      </trkpt>
      <trkpt lat="45.22251" lon="6.41369">
        <ele>1669.9</ele>
        <time>2014-07-01T06:54:17.710Z</time>
      </trkpt>
      <trkpt lat="45.22247" lon="6.41372">
        <ele>1669.8</ele>
        <time>2014-07-01T06:54:18.709Z</time>
      </trkpt>
      <trkpt lat="45.22243" lon="6.41375">
        <ele>1669.5</ele>
        <time>2014-07-01T06:54:19.709Z</time>
      </trkpt>
      <trkpt lat="45.22236" lon="6.41383">
        <ele>1669.4</ele>
        <time>2014-07-01T06:54:21.701Z</time>
      </trkpt>
      <trkpt lat="45.22233" lon="6.41387">
        <ele>1669.3</ele>
        <time>2014-07-01T06:54:22.704Z</time>
      </trkpt>
      <trkpt lat="45.22228" lon="6.41394">
        <ele>1669</ele>
        <time>2014-07-01T06:54:24.708Z</time>
      </trkpt>
      <trkpt lat="45.22224" lon="6.41398">
        <ele>1668.8</ele>
        <time>2014-07-01T06:54:25.720Z</time>
      </trkpt>
      <trkpt lat="45.22221" lon="6.41401">
        <ele>1668.7</ele>
        <time>2014-07-01T06:54:26.720Z</time>
      </trkpt>
      <trkpt lat="45.22217" lon="6.41406">
        <ele>1668.8</ele>
        <time>2014-07-01T06:54:27.707Z</time>
      </trkpt>
      <trkpt lat="45.22213" lon="6.4141">
        <ele>1668.7</ele>
        <time>2014-07-01T06:54:28.706Z</time>
      </trkpt>
      <trkpt lat="45.22209" lon="6.41413">
        <ele>1668.5</ele>
        <time>2014-07-01T06:54:29.732Z</time>
      </trkpt>
      <trkpt lat="45.22203" lon="6.41418">
        <ele>1668.2</ele>
        <time>2014-07-01T06:54:31.712Z</time>
      </trkpt>
      <trkpt lat="45.222" lon="6.4142">
        <ele>1667.8</ele>
        <time>2014-07-01T06:54:32.725Z</time>
      </trkpt>
      <trkpt lat="45.22193" lon="6.41427">
        <ele>1667.4</ele>
        <time>2014-07-01T06:54:35.701Z</time>
      </trkpt>
      <trkpt lat="45.22191" lon="6.4143">
        <ele>1667.4</ele>
        <time>2014-07-01T06:54:36.691Z</time>
      </trkpt>
      <trkpt lat="45.22185" lon="6.41438">
        <ele>1667.4</ele>
        <time>2014-07-01T06:54:38.705Z</time>
      </trkpt>
      <trkpt lat="45.22183" lon="6.41441">
        <ele>1667.3</ele>
        <time>2014-07-01T06:54:39.697Z</time>
      </trkpt>
      <trkpt lat="45.22179" lon="6.41446">
        <ele>1667.5</ele>
        <time>2014-07-01T06:54:41.698Z</time>
      </trkpt>
      <trkpt lat="45.22176" lon="6.4145">
        <ele>1667.5</ele>
        <time>2014-07-01T06:54:42.695Z</time>
      </trkpt>
      <trkpt lat="45.2217" lon="6.41454">
        <ele>1667.5</ele>
        <time>2014-07-01T06:54:44.716Z</time>
      </trkpt>
      <trkpt lat="45.22167" lon="6.41457">
        <ele>1667.6</ele>
        <time>2014-07-01T06:54:45.715Z</time>
      </trkpt>
      <trkpt lat="45.22163" lon="6.4146">
        <ele>1667.5</ele>
        <time>2014-07-01T06:54:46.715Z</time>
      </trkpt>
      <trkpt lat="45.22158" lon="6.41465">
        <ele>1667.2</ele>
        <time>2014-07-01T06:54:47.714Z</time>
      </trkpt>
      <trkpt lat="45.22154" lon="6.41469">
        <ele>1667.3</ele>
        <time>2014-07-01T06:54:48.705Z</time>
      </trkpt>
      <trkpt lat="45.22149" lon="6.41473">
        <ele>1667.3</ele>
        <time>2014-07-01T06:54:49.707Z</time>
      </trkpt>
      <trkpt lat="45.22145" lon="6.41477">
        <ele>1667.2</ele>
        <time>2014-07-01T06:54:50.696Z</time>
      </trkpt>
      <trkpt lat="45.2214" lon="6.41483">
        <ele>1667.4</ele>
        <time>2014-07-01T06:54:51.707Z</time>
      </trkpt>
      <trkpt lat="45.22135" lon="6.41486">
        <ele>1667.5</ele>
        <time>2014-07-01T06:54:52.702Z</time>
      </trkpt>
      <trkpt lat="45.2213" lon="6.41491">
        <ele>1667.6</ele>
        <time>2014-07-01T06:54:53.711Z</time>
      </trkpt>
      <trkpt lat="45.22125" lon="6.41495">
        <ele>1667.7</ele>
        <time>2014-07-01T06:54:54.708Z</time>
      </trkpt>
      <trkpt lat="45.22119" lon="6.41501">
        <ele>1667.6</ele>
        <time>2014-07-01T06:54:55.717Z</time>
      </trkpt>
      <trkpt lat="45.22113" lon="6.41505">
        <ele>1667.7</ele>
        <time>2014-07-01T06:54:56.729Z</time>
      </trkpt>
      <trkpt lat="45.22108" lon="6.41508">
        <ele>1667.7</ele>
        <time>2014-07-01T06:54:57.709Z</time>
      </trkpt>
      <trkpt lat="45.22104" lon="6.41512">
        <ele>1667.8</ele>
        <time>2014-07-01T06:54:58.708Z</time>
      </trkpt>
      <trkpt lat="45.221" lon="6.41516">
        <ele>1667.9</ele>
        <time>2014-07-01T06:54:59.708Z</time>
      </trkpt>
      <trkpt lat="45.22095" lon="6.41521">
        <ele>1668.1</ele>
        <time>2014-07-01T06:55:00.680Z</time>
      </trkpt>
      <trkpt lat="45.2209" lon="6.41528">
        <ele>1668.3</ele>
        <time>2014-07-01T06:55:01.727Z</time>
      </trkpt>
      <trkpt lat="45.22086" lon="6.41534">
        <ele>1668.5</ele>
        <time>2014-07-01T06:55:02.723Z</time>
      </trkpt>
      <trkpt lat="45.22082" lon="6.4154">
        <ele>1668.9</ele>
        <time>2014-07-01T06:55:03.701Z</time>
      </trkpt>
      <trkpt lat="45.22078" lon="6.41545">
        <ele>1669.1</ele>
        <time>2014-07-01T06:55:04.729Z</time>
      </trkpt>
      <trkpt lat="45.22074" lon="6.4155">
        <ele>1669.5</ele>
        <time>2014-07-01T06:55:05.675Z</time>
      </trkpt>
      <trkpt lat="45.2207" lon="6.41556">
        <ele>1669.8</ele>
        <time>2014-07-01T06:55:06.686Z</time>
      </trkpt>
      <trkpt lat="45.22066" lon="6.41561">
        <ele>1670.2</ele>
        <time>2014-07-01T06:55:07.703Z</time>
      </trkpt>
      <trkpt lat="45.22059" lon="6.41569">
        <ele>1671.2</ele>
        <time>2014-07-01T06:55:09.713Z</time>
      </trkpt>
      <trkpt lat="45.22057" lon="6.41573">
        <ele>1671.5</ele>
        <time>2014-07-01T06:55:10.705Z</time>
      </trkpt>
      <trkpt lat="45.22051" lon="6.41582">
        <ele>1672</ele>
        <time>2014-07-01T06:55:12.697Z</time>
      </trkpt>
      <trkpt lat="45.22049" lon="6.41585">
        <ele>1672.2</ele>
        <time>2014-07-01T06:55:13.713Z</time>
      </trkpt>
      <trkpt lat="45.22046" lon="6.41592">
        <ele>1672.7</ele>
        <time>2014-07-01T06:55:15.716Z</time>
      </trkpt>
      <trkpt lat="45.22043" lon="6.41596">
        <ele>1673</ele>
        <time>2014-07-01T06:55:16.702Z</time>
      </trkpt>
      <trkpt lat="45.22037" lon="6.41604">
        <ele>1673.6</ele>
        <time>2014-07-01T06:55:18.717Z</time>
      </trkpt>
      <trkpt lat="45.22034" lon="6.41608">
        <ele>1674</ele>
        <time>2014-07-01T06:55:19.702Z</time>
      </trkpt>
      <trkpt lat="45.22029" lon="6.41616">
        <ele>1674.4</ele>
        <time>2014-07-01T06:55:21.708Z</time>
      </trkpt>
      <trkpt lat="45.22027" lon="6.41619">
        <ele>1674.8</ele>
        <time>2014-07-01T06:55:22.705Z</time>
      </trkpt>
      <trkpt lat="45.22022" lon="6.41626">
        <ele>1675.4</ele>
        <time>2014-07-01T06:55:24.731Z</time>
      </trkpt>
      <trkpt lat="45.2202" lon="6.41629">
        <ele>1675.7</ele>
        <time>2014-07-01T06:55:25.712Z</time>
      </trkpt>
      <trkpt lat="45.22015" lon="6.41636">
        <ele>1676</ele>
        <time>2014-07-01T06:55:27.753Z</time>
      </trkpt>
      <trkpt lat="45.22012" lon="6.4164">
        <ele>1676.2</ele>
        <time>2014-07-01T06:55:28.723Z</time>
      </trkpt>
      <trkpt lat="45.22008" lon="6.41644">
        <ele>1676.4</ele>
        <time>2014-07-01T06:55:29.681Z</time>
      </trkpt>
      <trkpt lat="45.22005" lon="6.41648">
        <ele>1676.5</ele>
        <time>2014-07-01T06:55:30.705Z</time>
      </trkpt>
      <trkpt lat="45.22001" lon="6.41653">
        <ele>1676.8</ele>
        <time>2014-07-01T06:55:31.699Z</time>
      </trkpt>
      <trkpt lat="45.21998" lon="6.41657">
        <ele>1676.9</ele>
        <time>2014-07-01T06:55:32.702Z</time>
      </trkpt>
      <trkpt lat="45.21994" lon="6.41661">
        <ele>1677.1</ele>
        <time>2014-07-01T06:55:33.696Z</time>
      </trkpt>
      <trkpt lat="45.2199" lon="6.41664">
        <ele>1677.4</ele>
        <time>2014-07-01T06:55:34.695Z</time>
      </trkpt>
      <trkpt lat="45.21986" lon="6.41669">
        <ele>1677.7</ele>
        <time>2014-07-01T06:55:35.704Z</time>
      </trkpt>
      <trkpt lat="45.21982" lon="6.41672">
        <ele>1677.9</ele>
        <time>2014-07-01T06:55:36.701Z</time>
      </trkpt>
      <trkpt lat="45.21974" lon="6.41678">
        <ele>1678.2</ele>
        <time>2014-07-01T06:55:38.718Z</time>
      </trkpt>
      <trkpt lat="45.21971" lon="6.41682">
        <ele>1678.4</ele>
        <time>2014-07-01T06:55:39.699Z</time>
      </trkpt>
      <trkpt lat="45.21968" lon="6.41685">
        <ele>1678.6</ele>
        <time>2014-07-01T06:55:40.701Z</time>
      </trkpt>
      <trkpt lat="45.21963" lon="6.41689">
        <ele>1678.8</ele>
        <time>2014-07-01T06:55:41.700Z</time>
      </trkpt>
      <trkpt lat="45.21958" lon="6.41693">
        <ele>1678.9</ele>
        <time>2014-07-01T06:55:42.678Z</time>
      </trkpt>
      <trkpt lat="45.21954" lon="6.41696">
        <ele>1679.2</ele>
        <time>2014-07-01T06:55:43.700Z</time>
      </trkpt>
      <trkpt lat="45.21946" lon="6.417">
        <ele>1679.6</ele>
        <time>2014-07-01T06:55:45.718Z</time>
      </trkpt>
      <trkpt lat="45.21942" lon="6.41703">
        <ele>1679.8</ele>
        <time>2014-07-01T06:55:46.700Z</time>
      </trkpt>
      <trkpt lat="45.21937" lon="6.41709">
        <ele>1680.1</ele>
        <time>2014-07-01T06:55:48.701Z</time>
      </trkpt>
      <trkpt lat="45.21935" lon="6.41712">
        <ele>1680.3</ele>
        <time>2014-07-01T06:55:49.708Z</time>
      </trkpt>
      <trkpt lat="45.21929" lon="6.41717">
        <ele>1680.6</ele>
        <time>2014-07-01T06:55:51.704Z</time>
      </trkpt>
      <trkpt lat="45.21926" lon="6.4172">
        <ele>1680.5</ele>
        <time>2014-07-01T06:55:52.728Z</time>
      </trkpt>
      <trkpt lat="45.2192" lon="6.41726">
        <ele>1680.6</ele>
        <time>2014-07-01T06:55:54.707Z</time>
      </trkpt>
      <trkpt lat="45.21918" lon="6.41729">
        <ele>1680.8</ele>
        <time>2014-07-01T06:55:55.701Z</time>
      </trkpt>
      <trkpt lat="45.21912" lon="6.41738">
        <ele>1681.4</ele>
        <time>2014-07-01T06:55:57.708Z</time>
      </trkpt>
      <trkpt lat="45.21909" lon="6.41742">
        <ele>1681.5</ele>
        <time>2014-07-01T06:55:58.710Z</time>
      </trkpt>
      <trkpt lat="45.21906" lon="6.41747">
        <ele>1681.7</ele>
        <time>2014-07-01T06:55:59.717Z</time>
      </trkpt>
      <trkpt lat="45.21902" lon="6.41752">
        <ele>1681.9</ele>
        <time>2014-07-01T06:56:00.681Z</time>
      </trkpt>
      <trkpt lat="45.21896" lon="6.41759">
        <ele>1682</ele>
        <time>2014-07-01T06:56:02.718Z</time>
      </trkpt>
      <trkpt lat="45.21892" lon="6.41763">
        <ele>1682.2</ele>
        <time>2014-07-01T06:56:03.700Z</time>
      </trkpt>
      <trkpt lat="45.21888" lon="6.41767">
        <ele>1682.4</ele>
        <time>2014-07-01T06:56:04.730Z</time>
      </trkpt>
      <trkpt lat="45.21885" lon="6.41771">
        <ele>1682.7</ele>
        <time>2014-07-01T06:56:05.725Z</time>
      </trkpt>
      <trkpt lat="45.21878" lon="6.41779">
        <ele>1683.1</ele>
        <time>2014-07-01T06:56:07.731Z</time>
      </trkpt>
      <trkpt lat="45.21874" lon="6.41783">
        <ele>1683.4</ele>
        <time>2014-07-01T06:56:08.713Z</time>
      </trkpt>
      <trkpt lat="45.21868" lon="6.41791">
        <ele>1683.6</ele>
        <time>2014-07-01T06:56:10.684Z</time>
      </trkpt>
      <trkpt lat="45.21865" lon="6.41795">
        <ele>1683.6</ele>
        <time>2014-07-01T06:56:11.736Z</time>
      </trkpt>
      <trkpt lat="45.21859" lon="6.41805">
        <ele>1683.1</ele>
        <time>2014-07-01T06:56:13.703Z</time>
      </trkpt>
      <trkpt lat="45.21856" lon="6.4181">
        <ele>1683</ele>
        <time>2014-07-01T06:56:14.734Z</time>
      </trkpt>
      <trkpt lat="45.21853" lon="6.41815">
        <ele>1682.9</ele>
        <time>2014-07-01T06:56:15.711Z</time>
      </trkpt>
      <trkpt lat="45.2185" lon="6.4182">
        <ele>1683.1</ele>
        <time>2014-07-01T06:56:16.728Z</time>
      </trkpt>
      <trkpt lat="45.21847" lon="6.41825">
        <ele>1683.2</ele>
        <time>2014-07-01T06:56:17.727Z</time>
      </trkpt>
      <trkpt lat="45.21844" lon="6.4183">
        <ele>1683.4</ele>
        <time>2014-07-01T06:56:18.712Z</time>
      </trkpt>
      <trkpt lat="45.2184" lon="6.41835">
        <ele>1683.4</ele>
        <time>2014-07-01T06:56:19.715Z</time>
      </trkpt>
      <trkpt lat="45.21837" lon="6.41841">
        <ele>1683.5</ele>
        <time>2014-07-01T06:56:20.713Z</time>
      </trkpt>
      <trkpt lat="45.2183" lon="6.41848">
        <ele>1683.3</ele>
        <time>2014-07-01T06:56:22.712Z</time>
      </trkpt>
      <trkpt lat="45.21827" lon="6.41852">
        <ele>1683.1</ele>
        <time>2014-07-01T06:56:23.698Z</time>
      </trkpt>
      <trkpt lat="45.21822" lon="6.41858">
        <ele>1682.7</ele>
        <time>2014-07-01T06:56:25.701Z</time>
      </trkpt>
      <trkpt lat="45.21819" lon="6.41862">
        <ele>1682.5</ele>
        <time>2014-07-01T06:56:26.729Z</time>
      </trkpt>
      <trkpt lat="45.21814" lon="6.4187">
        <ele>1682.3</ele>
        <time>2014-07-01T06:56:28.695Z</time>
      </trkpt>
      <trkpt lat="45.21811" lon="6.41874">
        <ele>1682.5</ele>
        <time>2014-07-01T06:56:29.679Z</time>
      </trkpt>
      <trkpt lat="45.21807" lon="6.41879">
        <ele>1682.6</ele>
        <time>2014-07-01T06:56:30.689Z</time>
      </trkpt>
      <trkpt lat="45.21803" lon="6.41883">
        <ele>1682.5</ele>
        <time>2014-07-01T06:56:31.688Z</time>
      </trkpt>
      <trkpt lat="45.21799" lon="6.41887">
        <ele>1682.4</ele>
        <time>2014-07-01T06:56:32.690Z</time>
      </trkpt>
      <trkpt lat="45.21795" lon="6.4189">
        <ele>1682.4</ele>
        <time>2014-07-01T06:56:33.700Z</time>
      </trkpt>
      <trkpt lat="45.21791" lon="6.41892">
        <ele>1682.4</ele>
        <time>2014-07-01T06:56:34.684Z</time>
      </trkpt>
      <trkpt lat="45.21786" lon="6.41895">
        <ele>1682.4</ele>
        <time>2014-07-01T06:56:35.697Z</time>
      </trkpt>
      <trkpt lat="45.21781" lon="6.41898">
        <ele>1682.5</ele>
        <time>2014-07-01T06:56:36.701Z</time>
      </trkpt>
      <trkpt lat="45.21776" lon="6.41899">
        <ele>1682.6</ele>
        <time>2014-07-01T06:56:37.702Z</time>
      </trkpt>
      <trkpt lat="45.21771" lon="6.41899">
        <ele>1682.6</ele>
        <time>2014-07-01T06:56:38.697Z</time>
      </trkpt>
      <trkpt lat="45.21765" lon="6.41899">
        <ele>1682.6</ele>
        <time>2014-07-01T06:56:39.709Z</time>
      </trkpt>
      <trkpt lat="45.21759" lon="6.419">
        <ele>1682.6</ele>
        <time>2014-07-01T06:56:40.713Z</time>
      </trkpt>
      <trkpt lat="45.21753" lon="6.41902">
        <ele>1682.4</ele>
        <time>2014-07-01T06:56:41.715Z</time>
      </trkpt>
      <trkpt lat="45.21747" lon="6.41904">
        <ele>1682.4</ele>
        <time>2014-07-01T06:56:42.717Z</time>
      </trkpt>
      <trkpt lat="45.2174" lon="6.41905">
        <ele>1682.3</ele>
        <time>2014-07-01T06:56:43.717Z</time>
      </trkpt>
      <trkpt lat="45.21734" lon="6.41906">
        <ele>1682.3</ele>
        <time>2014-07-01T06:56:44.691Z</time>
      </trkpt>
      <trkpt lat="45.21729" lon="6.41907">
        <ele>1682.2</ele>
        <time>2014-07-01T06:56:45.725Z</time>
      </trkpt>
      <trkpt lat="45.21723" lon="6.41907">
        <ele>1682.1</ele>
        <time>2014-07-01T06:56:46.712Z</time>
      </trkpt>
      <trkpt lat="45.21718" lon="6.41907">
        <ele>1682</ele>
        <time>2014-07-01T06:56:47.718Z</time>
      </trkpt>
      <trkpt lat="45.21713" lon="6.41907">
        <ele>1681.8</ele>
        <time>2014-07-01T06:56:48.709Z</time>
      </trkpt>
      <trkpt lat="45.21707" lon="6.41906">
        <ele>1681.5</ele>
        <time>2014-07-01T06:56:49.696Z</time>
      </trkpt>
      <trkpt lat="45.21701" lon="6.41907">
        <ele>1681.3</ele>
        <time>2014-07-01T06:56:50.733Z</time>
      </trkpt>
      <trkpt lat="45.21697" lon="6.4191">
        <ele>1681.1</ele>
        <time>2014-07-01T06:56:51.714Z</time>
      </trkpt>
      <trkpt lat="45.21691" lon="6.4192">
        <ele>1680.8</ele>
        <time>2014-07-01T06:56:53.709Z</time>
      </trkpt>
      <trkpt lat="45.21689" lon="6.41926">
        <ele>1680.8</ele>
        <time>2014-07-01T06:56:54.701Z</time>
      </trkpt>
      <trkpt lat="45.21688" lon="6.41939">
        <ele>1680.8</ele>
        <time>2014-07-01T06:56:56.700Z</time>
      </trkpt>
      <trkpt lat="45.21688" lon="6.41944">
        <ele>1680.8</ele>
        <time>2014-07-01T06:56:57.706Z</time>
      </trkpt>
      <trkpt lat="45.21689" lon="6.41954">
        <ele>1680.9</ele>
        <time>2014-07-01T06:56:59.703Z</time>
      </trkpt>
      <trkpt lat="45.2169" lon="6.41959">
        <ele>1681.1</ele>
        <time>2014-07-01T06:57:00.699Z</time>
      </trkpt>
      <trkpt lat="45.21692" lon="6.41969">
        <ele>1681.3</ele>
        <time>2014-07-01T06:57:02.702Z</time>
      </trkpt>
      <trkpt lat="45.21694" lon="6.41974">
        <ele>1681.4</ele>
        <time>2014-07-01T06:57:03.697Z</time>
      </trkpt>
      <trkpt lat="45.21695" lon="6.41984">
        <ele>1681.5</ele>
        <time>2014-07-01T06:57:05.697Z</time>
      </trkpt>
      <trkpt lat="45.21696" lon="6.4199">
        <ele>1681.6</ele>
        <time>2014-07-01T06:57:06.716Z</time>
      </trkpt>
      <trkpt lat="45.21696" lon="6.42002">
        <ele>1682.2</ele>
        <time>2014-07-01T06:57:08.709Z</time>
      </trkpt>
      <trkpt lat="45.21696" lon="6.42007">
        <ele>1682.3</ele>
        <time>2014-07-01T06:57:09.697Z</time>
      </trkpt>
      <trkpt lat="45.21695" lon="6.42018">
        <ele>1682.5</ele>
        <time>2014-07-01T06:57:11.699Z</time>
      </trkpt>
      <trkpt lat="45.21695" lon="6.42024">
        <ele>1682.7</ele>
        <time>2014-07-01T06:57:12.698Z</time>
      </trkpt>
      <trkpt lat="45.21695" lon="6.42036">
        <ele>1682.9</ele>
        <time>2014-07-01T06:57:14.690Z</time>
      </trkpt>
      <trkpt lat="45.21695" lon="6.42041">
        <ele>1683.2</ele>
        <time>2014-07-01T06:57:15.720Z</time>
      </trkpt>
      <trkpt lat="45.21695" lon="6.42052">
        <ele>1683.4</ele>
        <time>2014-07-01T06:57:18.719Z</time>
      </trkpt>
      <trkpt lat="45.21695" lon="6.42056">
        <ele>1683.4</ele>
        <time>2014-07-01T06:57:19.718Z</time>
      </trkpt>
      <trkpt lat="45.21693" lon="6.42064">
        <ele>1683.8</ele>
        <time>2014-07-01T06:57:21.705Z</time>
      </trkpt>
      <trkpt lat="45.21691" lon="6.42068">
        <ele>1683.9</ele>
        <time>2014-07-01T06:57:22.705Z</time>
      </trkpt>
      <trkpt lat="45.21685" lon="6.42077">
        <ele>1684</ele>
        <time>2014-07-01T06:57:24.720Z</time>
      </trkpt>
      <trkpt lat="45.21683" lon="6.4208">
        <ele>1684.1</ele>
        <time>2014-07-01T06:57:25.707Z</time>
      </trkpt>
      <trkpt lat="45.21679" lon="6.42086">
        <ele>1684.4</ele>
        <time>2014-07-01T06:57:27.705Z</time>
      </trkpt>
      <trkpt lat="45.21676" lon="6.4209">
        <ele>1684.6</ele>
        <time>2014-07-01T06:57:28.723Z</time>
      </trkpt>
      <trkpt lat="45.21672" lon="6.42097">
        <ele>1684.7</ele>
        <time>2014-07-01T06:57:30.700Z</time>
      </trkpt>
      <trkpt lat="45.21669" lon="6.421">
        <ele>1684.7</ele>
        <time>2014-07-01T06:57:31.707Z</time>
      </trkpt>
      <trkpt lat="45.21665" lon="6.42105">
        <ele>1684.8</ele>
        <time>2014-07-01T06:57:32.716Z</time>
      </trkpt>
      <trkpt lat="45.21662" lon="6.42108">
        <ele>1684.7</ele>
        <time>2014-07-01T06:57:33.712Z</time>
      </trkpt>
      <trkpt lat="45.21655" lon="6.42115">
        <ele>1684.8</ele>
        <time>2014-07-01T06:57:35.701Z</time>
      </trkpt>
      <trkpt lat="45.21652" lon="6.42118">
        <ele>1684.9</ele>
        <time>2014-07-01T06:57:36.701Z</time>
      </trkpt>
      <trkpt lat="45.21646" lon="6.42126">
        <ele>1685.2</ele>
        <time>2014-07-01T06:57:38.719Z</time>
      </trkpt>
      <trkpt lat="45.21642" lon="6.4213">
        <ele>1685.3</ele>
        <time>2014-07-01T06:57:39.696Z</time>
      </trkpt>
      <trkpt lat="45.21636" lon="6.42138">
        <ele>1685.4</ele>
        <time>2014-07-01T06:57:41.743Z</time>
      </trkpt>
      <trkpt lat="45.21633" lon="6.42142">
        <ele>1685.5</ele>
        <time>2014-07-01T06:57:42.715Z</time>
      </trkpt>
      <trkpt lat="45.21628" lon="6.42151">
        <ele>1685.7</ele>
        <time>2014-07-01T06:57:44.739Z</time>
      </trkpt>
      <trkpt lat="45.21625" lon="6.42154">
        <ele>1685.9</ele>
        <time>2014-07-01T06:57:45.710Z</time>
      </trkpt>
      <trkpt lat="45.2162" lon="6.42161">
        <ele>1685.9</ele>
        <time>2014-07-01T06:57:47.711Z</time>
      </trkpt>
      <trkpt lat="45.21617" lon="6.42164">
        <ele>1685.9</ele>
        <time>2014-07-01T06:57:48.720Z</time>
      </trkpt>
      <trkpt lat="45.2161" lon="6.42171">
        <ele>1686</ele>
        <time>2014-07-01T06:57:50.726Z</time>
      </trkpt>
      <trkpt lat="45.21607" lon="6.42174">
        <ele>1686.1</ele>
        <time>2014-07-01T06:57:51.685Z</time>
      </trkpt>
      <trkpt lat="45.21601" lon="6.42181">
        <ele>1686.1</ele>
        <time>2014-07-01T06:57:53.719Z</time>
      </trkpt>
      <trkpt lat="45.21599" lon="6.42186">
        <ele>1686.2</ele>
        <time>2014-07-01T06:57:54.703Z</time>
      </trkpt>
      <trkpt lat="45.21597" lon="6.42198">
        <ele>1686.5</ele>
        <time>2014-07-01T06:57:56.754Z</time>
      </trkpt>
      <trkpt lat="45.21597" lon="6.42204">
        <ele>1686.8</ele>
        <time>2014-07-01T06:57:57.708Z</time>
      </trkpt>
      <trkpt lat="45.21596" lon="6.42216">
        <ele>1687.3</ele>
        <time>2014-07-01T06:57:59.705Z</time>
      </trkpt>
      <trkpt lat="45.21597" lon="6.42222">
        <ele>1687.5</ele>
        <time>2014-07-01T06:58:00.722Z</time>
      </trkpt>
      <trkpt lat="45.21597" lon="6.42232">
        <ele>1687.7</ele>
        <time>2014-07-01T06:58:02.723Z</time>
      </trkpt>
      <trkpt lat="45.21597" lon="6.42237">
        <ele>1687.8</ele>
        <time>2014-07-01T06:58:03.715Z</time>
      </trkpt>
      <trkpt lat="45.216" lon="6.42246">
        <ele>1687.8</ele>
        <time>2014-07-01T06:58:05.707Z</time>
      </trkpt>
      <trkpt lat="45.21602" lon="6.4225">
        <ele>1687.7</ele>
        <time>2014-07-01T06:58:06.703Z</time>
      </trkpt>
      <trkpt lat="45.21606" lon="6.42258">
        <ele>1687.7</ele>
        <time>2014-07-01T06:58:08.717Z</time>
      </trkpt>
      <trkpt lat="45.21609" lon="6.42262">
        <ele>1687.9</ele>
        <time>2014-07-01T06:58:09.703Z</time>
      </trkpt>
      <trkpt lat="45.21614" lon="6.42272">
        <ele>1687.9</ele>
        <time>2014-07-01T06:58:11.680Z</time>
      </trkpt>
      <trkpt lat="45.21615" lon="6.42278">
        <ele>1688</ele>
        <time>2014-07-01T06:58:12.693Z</time>
      </trkpt>
      <trkpt lat="45.21617" lon="6.42289">
        <ele>1688.2</ele>
        <time>2014-07-01T06:58:14.720Z</time>
      </trkpt>
      <trkpt lat="45.21616" lon="6.42293">
        <ele>1688.3</ele>
        <time>2014-07-01T06:58:15.686Z</time>
      </trkpt>
      <trkpt lat="45.21615" lon="6.42302">
        <ele>1688.4</ele>
        <time>2014-07-01T06:58:17.710Z</time>
      </trkpt>
      <trkpt lat="45.21613" lon="6.42307">
        <ele>1688.3</ele>
        <time>2014-07-01T06:58:18.716Z</time>
      </trkpt>
      <trkpt lat="45.21609" lon="6.42315">
        <ele>1688.5</ele>
        <time>2014-07-01T06:58:20.733Z</time>
      </trkpt>
      <trkpt lat="45.21607" lon="6.42319">
        <ele>1688.8</ele>
        <time>2014-07-01T06:58:21.721Z</time>
      </trkpt>
      <trkpt lat="45.21601" lon="6.42327">
        <ele>1689</ele>
        <time>2014-07-01T06:58:23.713Z</time>
      </trkpt>
      <trkpt lat="45.21598" lon="6.42331">
        <ele>1689.1</ele>
        <time>2014-07-01T06:58:24.714Z</time>
      </trkpt>
      <trkpt lat="45.21592" lon="6.42338">
        <ele>1689.5</ele>
        <time>2014-07-01T06:58:26.732Z</time>
      </trkpt>
      <trkpt lat="45.21588" lon="6.42341">
        <ele>1689.8</ele>
        <time>2014-07-01T06:58:27.714Z</time>
      </trkpt>
      <trkpt lat="45.21584" lon="6.42344">
        <ele>1690</ele>
        <time>2014-07-01T06:58:28.679Z</time>
      </trkpt>
      <trkpt lat="45.2158" lon="6.42347">
        <ele>1690.1</ele>
        <time>2014-07-01T06:58:29.716Z</time>
      </trkpt>
      <trkpt lat="45.21572" lon="6.42352">
        <ele>1690.5</ele>
        <time>2014-07-01T06:58:31.702Z</time>
      </trkpt>
      <trkpt lat="45.21568" lon="6.42353">
        <ele>1690.6</ele>
        <time>2014-07-01T06:58:32.722Z</time>
      </trkpt>
      <trkpt lat="45.21561" lon="6.42358">
        <ele>1691.1</ele>
        <time>2014-07-01T06:58:34.699Z</time>
      </trkpt>
      <trkpt lat="45.21557" lon="6.42359">
        <ele>1691.3</ele>
        <time>2014-07-01T06:58:35.700Z</time>
      </trkpt>
      <trkpt lat="45.21553" lon="6.42362">
        <ele>1691.5</ele>
        <time>2014-07-01T06:58:36.683Z</time>
      </trkpt>
      <trkpt lat="45.21548" lon="6.42363">
        <ele>1691.4</ele>
        <time>2014-07-01T06:58:37.692Z</time>
      </trkpt>
      <trkpt lat="45.21542" lon="6.42364">
        <ele>1691.4</ele>
        <time>2014-07-01T06:58:38.696Z</time>
      </trkpt>
      <trkpt lat="45.21537" lon="6.42365">
        <ele>1691</ele>
        <time>2014-07-01T06:58:39.728Z</time>
      </trkpt>
      <trkpt lat="45.21532" lon="6.42367">
        <ele>1690.9</ele>
        <time>2014-07-01T06:58:40.715Z</time>
      </trkpt>
      <trkpt lat="45.21527" lon="6.42368">
        <ele>1690.9</ele>
        <time>2014-07-01T06:58:41.714Z</time>
      </trkpt>
      <trkpt lat="45.21522" lon="6.42369">
        <ele>1690.9</ele>
        <time>2014-07-01T06:58:42.685Z</time>
      </trkpt>
      <trkpt lat="45.21517" lon="6.42371">
        <ele>1690.8</ele>
        <time>2014-07-01T06:58:43.706Z</time>
      </trkpt>
      <trkpt lat="45.21512" lon="6.42371">
        <ele>1690.8</ele>
        <time>2014-07-01T06:58:44.730Z</time>
      </trkpt>
      <trkpt lat="45.21507" lon="6.42371">
        <ele>1690.9</ele>
        <time>2014-07-01T06:58:45.718Z</time>
      </trkpt>
      <trkpt lat="45.21499" lon="6.42371">
        <ele>1691</ele>
        <time>2014-07-01T06:58:47.725Z</time>
      </trkpt>
      <trkpt lat="45.21495" lon="6.42372">
        <ele>1691.1</ele>
        <time>2014-07-01T06:58:48.716Z</time>
      </trkpt>
      <trkpt lat="45.21488" lon="6.42373">
        <ele>1691.1</ele>
        <time>2014-07-01T06:58:50.705Z</time>
      </trkpt>
      <trkpt lat="45.21485" lon="6.42374">
        <ele>1691.2</ele>
        <time>2014-07-01T06:58:51.717Z</time>
      </trkpt>
      <trkpt lat="45.21478" lon="6.42375">
        <ele>1691.5</ele>
        <time>2014-07-01T06:58:53.717Z</time>
      </trkpt>
      <trkpt lat="45.21475" lon="6.42375">
        <ele>1691.5</ele>
        <time>2014-07-01T06:58:54.712Z</time>
      </trkpt>
      <trkpt lat="45.21468" lon="6.42374">
        <ele>1691.8</ele>
        <time>2014-07-01T06:58:56.733Z</time>
      </trkpt>
      <trkpt lat="45.21464" lon="6.42373">
        <ele>1692</ele>
        <time>2014-07-01T06:58:57.717Z</time>
      </trkpt>
      <trkpt lat="45.21457" lon="6.42367">
        <ele>1692.2</ele>
        <time>2014-07-01T06:58:59.716Z</time>
      </trkpt>
      <trkpt lat="45.21453" lon="6.42364">
        <ele>1692.3</ele>
        <time>2014-07-01T06:59:00.706Z</time>
      </trkpt>
      <trkpt lat="45.21446" lon="6.42355">
        <ele>1692.5</ele>
        <time>2014-07-01T06:59:02.720Z</time>
      </trkpt>
      <trkpt lat="45.21445" lon="6.42349">
        <ele>1692.8</ele>
        <time>2014-07-01T06:59:03.707Z</time>
      </trkpt>
      <trkpt lat="45.21443" lon="6.42337">
        <ele>1693.1</ele>
        <time>2014-07-01T06:59:05.709Z</time>
      </trkpt>
      <trkpt lat="45.21442" lon="6.4233">
        <ele>1693.2</ele>
        <time>2014-07-01T06:59:06.674Z</time>
      </trkpt>
      <trkpt lat="45.21442" lon="6.42324">
        <ele>1693.4</ele>
        <time>2014-07-01T06:59:07.706Z</time>
      </trkpt>
      <trkpt lat="45.21442" lon="6.42316">
        <ele>1693.5</ele>
        <time>2014-07-01T06:59:08.732Z</time>
      </trkpt>
      <trkpt lat="45.21442" lon="6.42308">
        <ele>1694</ele>
        <time>2014-07-01T06:59:09.706Z</time>
      </trkpt>
      <trkpt lat="45.21442" lon="6.423">
        <ele>1694.2</ele>
        <time>2014-07-01T06:59:10.724Z</time>
      </trkpt>
      <trkpt lat="45.21441" lon="6.42293">
        <ele>1694.6</ele>
        <time>2014-07-01T06:59:11.716Z</time>
      </trkpt>
      <trkpt lat="45.2144" lon="6.42286">
        <ele>1695</ele>
        <time>2014-07-01T06:59:12.714Z</time>
      </trkpt>
      <trkpt lat="45.21436" lon="6.42276">
        <ele>1695.5</ele>
        <time>2014-07-01T06:59:15.771Z</time>
      </trkpt>
      <trkpt lat="45.21434" lon="6.42276">
        <ele>1695.6</ele>
        <time>2014-07-01T06:59:16.730Z</time>
      </trkpt>
      <trkpt lat="45.21426" lon="6.42276">
        <ele>1696</ele>
        <time>2014-07-01T06:59:19.706Z</time>
      </trkpt>
      <trkpt lat="45.21424" lon="6.42275">
        <ele>1696.3</ele>
        <time>2014-07-01T06:59:20.713Z</time>
      </trkpt>
      <trkpt lat="45.21416" lon="6.42269">
        <ele>1696.3</ele>
        <time>2014-07-01T06:59:23.724Z</time>
      </trkpt>
      <trkpt lat="45.21413" lon="6.42266">
        <ele>1696.3</ele>
        <time>2014-07-01T06:59:24.724Z</time>
      </trkpt>
      <trkpt lat="45.21406" lon="6.42262">
        <ele>1696.4</ele>
        <time>2014-07-01T06:59:26.717Z</time>
      </trkpt>
      <trkpt lat="45.21403" lon="6.42259">
        <ele>1696.7</ele>
        <time>2014-07-01T06:59:27.716Z</time>
      </trkpt>
      <trkpt lat="45.21397" lon="6.42253">
        <ele>1697</ele>
        <time>2014-07-01T06:59:29.691Z</time>
      </trkpt>
      <trkpt lat="45.21394" lon="6.42251">
        <ele>1697.2</ele>
        <time>2014-07-01T06:59:30.707Z</time>
      </trkpt>
      <trkpt lat="45.21387" lon="6.42245">
        <ele>1697.5</ele>
        <time>2014-07-01T06:59:32.711Z</time>
      </trkpt>
      <trkpt lat="45.21383" lon="6.42242">
        <ele>1697.6</ele>
        <time>2014-07-01T06:59:33.702Z</time>
      </trkpt>
      <trkpt lat="45.21376" lon="6.42237">
        <ele>1697.6</ele>
        <time>2014-07-01T06:59:35.684Z</time>
      </trkpt>
      <trkpt lat="45.21373" lon="6.42234">
        <ele>1697.7</ele>
        <time>2014-07-01T06:59:36.709Z</time>
      </trkpt>
      <trkpt lat="45.21365" lon="6.42229">
        <ele>1697.8</ele>
        <time>2014-07-01T06:59:38.718Z</time>
      </trkpt>
      <trkpt lat="45.21362" lon="6.42227">
        <ele>1697.8</ele>
        <time>2014-07-01T06:59:39.675Z</time>
      </trkpt>
      <trkpt lat="45.21354" lon="6.42223">
        <ele>1698</ele>
        <time>2014-07-01T06:59:41.703Z</time>
      </trkpt>
      <trkpt lat="45.2135" lon="6.42221">
        <ele>1698.1</ele>
        <time>2014-07-01T06:59:42.698Z</time>
      </trkpt>
      <trkpt lat="45.21343" lon="6.42219">
        <ele>1698.7</ele>
        <time>2014-07-01T06:59:44.701Z</time>
      </trkpt>
      <trkpt lat="45.21339" lon="6.42218">
        <ele>1699</ele>
        <time>2014-07-01T06:59:45.728Z</time>
      </trkpt>
      <trkpt lat="45.2133" lon="6.42217">
        <ele>1699.1</ele>
        <time>2014-07-01T06:59:47.710Z</time>
      </trkpt>
      <trkpt lat="45.21326" lon="6.42217">
        <ele>1699.2</ele>
        <time>2014-07-01T06:59:48.742Z</time>
      </trkpt>
      <trkpt lat="45.21318" lon="6.42218">
        <ele>1699.4</ele>
        <time>2014-07-01T06:59:50.722Z</time>
      </trkpt>
      <trkpt lat="45.21314" lon="6.42218">
        <ele>1699.6</ele>
        <time>2014-07-01T06:59:51.672Z</time>
      </trkpt>
      <trkpt lat="45.21305" lon="6.42218">
        <ele>1699.9</ele>
        <time>2014-07-01T06:59:53.757Z</time>
      </trkpt>
      <trkpt lat="45.21301" lon="6.42218">
        <ele>1700.1</ele>
        <time>2014-07-01T06:59:54.747Z</time>
      </trkpt>
      <trkpt lat="45.21293" lon="6.42218">
        <ele>1700.5</ele>
        <time>2014-07-01T06:59:56.794Z</time>
      </trkpt>
      <trkpt lat="45.21289" lon="6.42217">
        <ele>1700.5</ele>
        <time>2014-07-01T06:59:57.761Z</time>
      </trkpt>
      <trkpt lat="45.21282" lon="6.42217">
        <ele>1701.1</ele>
        <time>2014-07-01T06:59:59.732Z</time>
      </trkpt>
      <trkpt lat="45.21278" lon="6.42217">
        <ele>1701.3</ele>
        <time>2014-07-01T07:00:00.709Z</time>
      </trkpt>
      <trkpt lat="45.21271" lon="6.42216">
        <ele>1701.7</ele>
        <time>2014-07-01T07:00:02.224Z</time>
      </trkpt>
      <trkpt lat="45.21267" lon="6.42215">
        <ele>1701.8</ele>
        <time>2014-07-01T07:00:03.225Z</time>
      </trkpt>
      <trkpt lat="45.2126" lon="6.42212">
        <ele>1702.1</ele>
        <time>2014-07-01T07:00:05.215Z</time>
      </trkpt>
      <trkpt lat="45.21256" lon="6.42211">
        <ele>1702.4</ele>
        <time>2014-07-01T07:00:06.233Z</time>
      </trkpt>
      <trkpt lat="45.21248" lon="6.42208">
        <ele>1702.7</ele>
        <time>2014-07-01T07:00:08.266Z</time>
      </trkpt>
      <trkpt lat="45.21245" lon="6.42206">
        <ele>1702.9</ele>
        <time>2014-07-01T07:00:09.250Z</time>
      </trkpt>
      <trkpt lat="45.21237" lon="6.42202">
        <ele>1703</ele>
        <time>2014-07-01T07:00:11.232Z</time>
      </trkpt>
      <trkpt lat="45.21233" lon="6.422">
        <ele>1703</ele>
        <time>2014-07-01T07:00:12.237Z</time>
      </trkpt>
      <trkpt lat="45.21229" lon="6.42199">
        <ele>1703</ele>
        <time>2014-07-01T07:00:13.232Z</time>
      </trkpt>
      <trkpt lat="45.21224" lon="6.42198">
        <ele>1703.1</ele>
        <time>2014-07-01T07:00:14.242Z</time>
      </trkpt>
      <trkpt lat="45.21219" lon="6.42199">
        <ele>1703.2</ele>
        <time>2014-07-01T07:00:15.278Z</time>
      </trkpt>
      <trkpt lat="45.21215" lon="6.42199">
        <ele>1703.2</ele>
        <time>2014-07-01T07:00:16.270Z</time>
      </trkpt>
      <trkpt lat="45.2121" lon="6.42199">
        <ele>1703.2</ele>
        <time>2014-07-01T07:00:17.218Z</time>
      </trkpt>
      <trkpt lat="45.21205" lon="6.422">
        <ele>1703.1</ele>
        <time>2014-07-01T07:00:18.212Z</time>
      </trkpt>
      <trkpt lat="45.21201" lon="6.422">
        <ele>1703.1</ele>
        <time>2014-07-01T07:00:19.275Z</time>
      </trkpt>
      <trkpt lat="45.21196" lon="6.422">
        <ele>1703.2</ele>
        <time>2014-07-01T07:00:20.316Z</time>
      </trkpt>
      <trkpt lat="45.21187" lon="6.42201">
        <ele>1703.3</ele>
        <time>2014-07-01T07:00:22.245Z</time>
      </trkpt>
      <trkpt lat="45.21183" lon="6.42201">
        <ele>1703.3</ele>
        <time>2014-07-01T07:00:23.245Z</time>
      </trkpt>
      <trkpt lat="45.21174" lon="6.42202">
        <ele>1703.3</ele>
        <time>2014-07-01T07:00:25.252Z</time>
      </trkpt>
      <trkpt lat="45.2117" lon="6.42202">
        <ele>1703.3</ele>
        <time>2014-07-01T07:00:26.251Z</time>
      </trkpt>
      <trkpt lat="45.21162" lon="6.42203">
        <ele>1703.4</ele>
        <time>2014-07-01T07:00:28.277Z</time>
      </trkpt>
      <trkpt lat="45.21159" lon="6.42204">
        <ele>1703.5</ele>
        <time>2014-07-01T07:00:29.275Z</time>
      </trkpt>
      <trkpt lat="45.21151" lon="6.42206">
        <ele>1703.8</ele>
        <time>2014-07-01T07:00:31.259Z</time>
      </trkpt>
      <trkpt lat="45.21147" lon="6.42207">
        <ele>1704</ele>
        <time>2014-07-01T07:00:32.251Z</time>
      </trkpt>
      <trkpt lat="45.21142" lon="6.42207">
        <ele>1704</ele>
        <time>2014-07-01T07:00:33.219Z</time>
      </trkpt>
      <trkpt lat="45.21137" lon="6.42207">
        <ele>1704</ele>
        <time>2014-07-01T07:00:34.267Z</time>
      </trkpt>
      <trkpt lat="45.21133" lon="6.42206">
        <ele>1704</ele>
        <time>2014-07-01T07:00:35.271Z</time>
      </trkpt>
      <trkpt lat="45.21128" lon="6.42205">
        <ele>1704.1</ele>
        <time>2014-07-01T07:00:36.265Z</time>
      </trkpt>
      <trkpt lat="45.21123" lon="6.42203">
        <ele>1704.1</ele>
        <time>2014-07-01T07:00:37.217Z</time>
      </trkpt>
      <trkpt lat="45.21117" lon="6.42201">
        <ele>1704</ele>
        <time>2014-07-01T07:00:38.223Z</time>
      </trkpt>
      <trkpt lat="45.21112" lon="6.42198">
        <ele>1703.9</ele>
        <time>2014-07-01T07:00:39.216Z</time>
      </trkpt>
      <trkpt lat="45.21106" lon="6.42195">
        <ele>1703.8</ele>
        <time>2014-07-01T07:00:40.224Z</time>
      </trkpt>
      <trkpt lat="45.211" lon="6.42192">
        <ele>1703.6</ele>
        <time>2014-07-01T07:00:41.260Z</time>
      </trkpt>
      <trkpt lat="45.21093" lon="6.42189">
        <ele>1703.4</ele>
        <time>2014-07-01T07:00:42.266Z</time>
      </trkpt>
      <trkpt lat="45.21087" lon="6.42185">
        <ele>1703.1</ele>
        <time>2014-07-01T07:00:43.253Z</time>
      </trkpt>
      <trkpt lat="45.2108" lon="6.4218">
        <ele>1702.8</ele>
        <time>2014-07-01T07:00:44.261Z</time>
      </trkpt>
      <trkpt lat="45.21074" lon="6.42174">
        <ele>1702.5</ele>
        <time>2014-07-01T07:00:45.278Z</time>
      </trkpt>
      <trkpt lat="45.21067" lon="6.42167">
        <ele>1702.4</ele>
        <time>2014-07-01T07:00:46.245Z</time>
      </trkpt>
      <trkpt lat="45.21061" lon="6.4216">
        <ele>1702.2</ele>
        <time>2014-07-01T07:00:47.245Z</time>
      </trkpt>
      <trkpt lat="45.21054" lon="6.42152">
        <ele>1702</ele>
        <time>2014-07-01T07:00:48.243Z</time>
      </trkpt>
      <trkpt lat="45.21047" lon="6.42146">
        <ele>1701.7</ele>
        <time>2014-07-01T07:00:49.270Z</time>
      </trkpt>
      <trkpt lat="45.2104" lon="6.42141">
        <ele>1701.2</ele>
        <time>2014-07-01T07:00:50.310Z</time>
      </trkpt>
      <trkpt lat="45.21032" lon="6.42138">
        <ele>1700.9</ele>
        <time>2014-07-01T07:00:51.271Z</time>
      </trkpt>
      <trkpt lat="45.21023" lon="6.42137">
        <ele>1700.6</ele>
        <time>2014-07-01T07:00:52.271Z</time>
      </trkpt>
      <trkpt lat="45.21015" lon="6.42137">
        <ele>1700.5</ele>
        <time>2014-07-01T07:00:53.284Z</time>
      </trkpt>
      <trkpt lat="45.21006" lon="6.42138">
        <ele>1700.3</ele>
        <time>2014-07-01T07:00:54.283Z</time>
      </trkpt>
      <trkpt lat="45.20998" lon="6.42138">
        <ele>1700.2</ele>
        <time>2014-07-01T07:00:55.236Z</time>
      </trkpt>
      <trkpt lat="45.2099" lon="6.42139">
        <ele>1700.1</ele>
        <time>2014-07-01T07:00:56.319Z</time>
      </trkpt>
      <trkpt lat="45.20983" lon="6.4214">
        <ele>1700.1</ele>
        <time>2014-07-01T07:00:57.251Z</time>
      </trkpt>
      <trkpt lat="45.20976" lon="6.4214">
        <ele>1700</ele>
        <time>2014-07-01T07:00:58.269Z</time>
      </trkpt>
      <trkpt lat="45.20969" lon="6.42138">
        <ele>1700</ele>
        <time>2014-07-01T07:00:59.270Z</time>
      </trkpt>
      <trkpt lat="45.20962" lon="6.42133">
        <ele>1700</ele>
        <time>2014-07-01T07:01:00.299Z</time>
      </trkpt>
      <trkpt lat="45.20956" lon="6.42126">
        <ele>1699.7</ele>
        <time>2014-07-01T07:01:01.297Z</time>
      </trkpt>
      <trkpt lat="45.2095" lon="6.42118">
        <ele>1699.3</ele>
        <time>2014-07-01T07:01:02.318Z</time>
      </trkpt>
      <trkpt lat="45.20944" lon="6.42109">
        <ele>1698.7</ele>
        <time>2014-07-01T07:01:03.254Z</time>
      </trkpt>
      <trkpt lat="45.20938" lon="6.421">
        <ele>1698.4</ele>
        <time>2014-07-01T07:01:04.298Z</time>
      </trkpt>
      <trkpt lat="45.20933" lon="6.42091">
        <ele>1698.1</ele>
        <time>2014-07-01T07:01:05.303Z</time>
      </trkpt>
      <trkpt lat="45.20927" lon="6.42081">
        <ele>1697.8</ele>
        <time>2014-07-01T07:01:06.299Z</time>
      </trkpt>
      <trkpt lat="45.20922" lon="6.42073">
        <ele>1697.6</ele>
        <time>2014-07-01T07:01:07.260Z</time>
      </trkpt>
      <trkpt lat="45.20916" lon="6.42065">
        <ele>1697.3</ele>
        <time>2014-07-01T07:01:08.295Z</time>
      </trkpt>
      <trkpt lat="45.20909" lon="6.42059">
        <ele>1696.9</ele>
        <time>2014-07-01T07:01:09.288Z</time>
      </trkpt>
      <trkpt lat="45.20903" lon="6.42055">
        <ele>1696.4</ele>
        <time>2014-07-01T07:01:10.289Z</time>
      </trkpt>
      <trkpt lat="45.20895" lon="6.42054">
        <ele>1695.9</ele>
        <time>2014-07-01T07:01:11.288Z</time>
      </trkpt>
      <trkpt lat="45.20888" lon="6.42053">
        <ele>1695.3</ele>
        <time>2014-07-01T07:01:12.292Z</time>
      </trkpt>
      <trkpt lat="45.2088" lon="6.42052">
        <ele>1694.8</ele>
        <time>2014-07-01T07:01:13.287Z</time>
      </trkpt>
      <trkpt lat="45.20872" lon="6.42053">
        <ele>1694.4</ele>
        <time>2014-07-01T07:01:14.316Z</time>
      </trkpt>
      <trkpt lat="45.20864" lon="6.42053">
        <ele>1694</ele>
        <time>2014-07-01T07:01:15.308Z</time>
      </trkpt>
      <trkpt lat="45.20856" lon="6.42054">
        <ele>1693.1</ele>
        <time>2014-07-01T07:01:16.292Z</time>
      </trkpt>
      <trkpt lat="45.20847" lon="6.42055">
        <ele>1692.3</ele>
        <time>2014-07-01T07:01:17.317Z</time>
      </trkpt>
      <trkpt lat="45.20838" lon="6.42055">
        <ele>1691.5</ele>
        <time>2014-07-01T07:01:18.289Z</time>
      </trkpt>
      <trkpt lat="45.2083" lon="6.42055">
        <ele>1691</ele>
        <time>2014-07-01T07:01:19.302Z</time>
      </trkpt>
      <trkpt lat="45.20822" lon="6.42053">
        <ele>1690.5</ele>
        <time>2014-07-01T07:01:20.335Z</time>
      </trkpt>
      <trkpt lat="45.20814" lon="6.42051">
        <ele>1690.2</ele>
        <time>2014-07-01T07:01:21.322Z</time>
      </trkpt>
      <trkpt lat="45.20807" lon="6.42047">
        <ele>1689.7</ele>
        <time>2014-07-01T07:01:22.303Z</time>
      </trkpt>
      <trkpt lat="45.208" lon="6.42044">
        <ele>1689.7</ele>
        <time>2014-07-01T07:01:23.287Z</time>
      </trkpt>
      <trkpt lat="45.20794" lon="6.4204">
        <ele>1689.6</ele>
        <time>2014-07-01T07:01:24.303Z</time>
      </trkpt>
      <trkpt lat="45.20789" lon="6.42037">
        <ele>1689.2</ele>
        <time>2014-07-01T07:01:25.328Z</time>
      </trkpt>
      <trkpt lat="45.20784" lon="6.42033">
        <ele>1689.1</ele>
        <time>2014-07-01T07:01:26.334Z</time>
      </trkpt>
      <trkpt lat="45.2078" lon="6.42029">
        <ele>1689.1</ele>
        <time>2014-07-01T07:01:27.318Z</time>
      </trkpt>
      <trkpt lat="45.20776" lon="6.42026">
        <ele>1689.2</ele>
        <time>2014-07-01T07:01:28.318Z</time>
      </trkpt>
      <trkpt lat="45.20772" lon="6.42023">
        <ele>1689.2</ele>
        <time>2014-07-01T07:01:29.305Z</time>
      </trkpt>
      <trkpt lat="45.20767" lon="6.42021">
        <ele>1689.2</ele>
        <time>2014-07-01T07:01:30.288Z</time>
      </trkpt>
      <trkpt lat="45.20763" lon="6.42018">
        <ele>1689.3</ele>
        <time>2014-07-01T07:01:31.306Z</time>
      </trkpt>
      <trkpt lat="45.20759" lon="6.42016">
        <ele>1689.4</ele>
        <time>2014-07-01T07:01:32.295Z</time>
      </trkpt>
      <trkpt lat="45.20752" lon="6.42009">
        <ele>1689.5</ele>
        <time>2014-07-01T07:01:34.268Z</time>
      </trkpt>
      <trkpt lat="45.20749" lon="6.42006">
        <ele>1689.5</ele>
        <time>2014-07-01T07:01:35.284Z</time>
      </trkpt>
      <trkpt lat="45.20744" lon="6.41998">
        <ele>1689.6</ele>
        <time>2014-07-01T07:01:37.280Z</time>
      </trkpt>
      <trkpt lat="45.20745" lon="6.41994">
        <ele>1689.7</ele>
        <time>2014-07-01T07:01:38.285Z</time>
      </trkpt>
      <trkpt lat="45.2075" lon="6.4199">
        <ele>1689.6</ele>
        <time>2014-07-01T07:01:40.272Z</time>
      </trkpt>
      <trkpt lat="45.20754" lon="6.4199">
        <ele>1689.8</ele>
        <time>2014-07-01T07:01:41.287Z</time>
      </trkpt>
      <trkpt lat="45.20761" lon="6.41994">
        <ele>1690</ele>
        <time>2014-07-01T07:01:43.283Z</time>
      </trkpt>
      <trkpt lat="45.20765" lon="6.41996">
        <ele>1690.4</ele>
        <time>2014-07-01T07:01:44.306Z</time>
      </trkpt>
      <trkpt lat="45.20773" lon="6.41999">
        <ele>1690.9</ele>
        <time>2014-07-01T07:01:46.280Z</time>
      </trkpt>
      <trkpt lat="45.20777" lon="6.42001">
        <ele>1691.1</ele>
        <time>2014-07-01T07:01:47.283Z</time>
      </trkpt>
      <trkpt lat="45.20785" lon="6.42001">
        <ele>1691.8</ele>
        <time>2014-07-01T07:01:49.320Z</time>
      </trkpt>
      <trkpt lat="45.20789" lon="6.41999">
        <ele>1692.1</ele>
        <time>2014-07-01T07:01:50.348Z</time>
      </trkpt>
      <trkpt lat="45.20792" lon="6.4199">
        <ele>1692.4</ele>
        <time>2014-07-01T07:01:52.320Z</time>
      </trkpt>
      <trkpt lat="45.2079" lon="6.41985">
        <ele>1692.7</ele>
        <time>2014-07-01T07:01:53.362Z</time>
      </trkpt>
      <trkpt lat="45.20785" lon="6.4198">
        <ele>1693.2</ele>
        <time>2014-07-01T07:01:55.284Z</time>
      </trkpt>
      <trkpt lat="45.20781" lon="6.41978">
        <ele>1693.5</ele>
        <time>2014-07-01T07:01:56.293Z</time>
      </trkpt>
      <trkpt lat="45.20773" lon="6.41975">
        <ele>1694.3</ele>
        <time>2014-07-01T07:01:58.319Z</time>
      </trkpt>
      <trkpt lat="45.2077" lon="6.41972">
        <ele>1694.6</ele>
        <time>2014-07-01T07:01:59.307Z</time>
      </trkpt>
      <trkpt lat="45.20764" lon="6.41966">
        <ele>1695.1</ele>
        <time>2014-07-01T07:02:01.275Z</time>
      </trkpt>
      <trkpt lat="45.20761" lon="6.41962">
        <ele>1695.3</ele>
        <time>2014-07-01T07:02:02.263Z</time>
      </trkpt>
      <trkpt lat="45.20755" lon="6.41955">
        <ele>1695.8</ele>
        <time>2014-07-01T07:02:04.297Z</time>
      </trkpt>
      <trkpt lat="45.20752" lon="6.41951">
        <ele>1695.9</ele>
        <time>2014-07-01T07:02:05.254Z</time>
      </trkpt>
      <trkpt lat="45.20746" lon="6.41944">
        <ele>1696.2</ele>
        <time>2014-07-01T07:02:07.293Z</time>
      </trkpt>
      <trkpt lat="45.20743" lon="6.41941">
        <ele>1696.3</ele>
        <time>2014-07-01T07:02:08.282Z</time>
      </trkpt>
      <trkpt lat="45.20737" lon="6.41935">
        <ele>1696.6</ele>
        <time>2014-07-01T07:02:10.306Z</time>
      </trkpt>
      <trkpt lat="45.20735" lon="6.41932">
        <ele>1696.8</ele>
        <time>2014-07-01T07:02:11.284Z</time>
      </trkpt>
      <trkpt lat="45.20729" lon="6.41927">
        <ele>1697.2</ele>
        <time>2014-07-01T07:02:13.259Z</time>
      </trkpt>
      <trkpt lat="45.20726" lon="6.41925">
        <ele>1697.3</ele>
        <time>2014-07-01T07:02:14.323Z</time>
      </trkpt>
      <trkpt lat="45.2072" lon="6.4192">
        <ele>1697.4</ele>
        <time>2014-07-01T07:02:16.283Z</time>
      </trkpt>
      <trkpt lat="45.20718" lon="6.41918">
        <ele>1697.5</ele>
        <time>2014-07-01T07:02:17.315Z</time>
      </trkpt>
      <trkpt lat="45.20718" lon="6.41906">
        <ele>1698.2</ele>
        <time>2014-07-01T07:02:20.343Z</time>
      </trkpt>
      <trkpt lat="45.2072" lon="6.41904">
        <ele>1698.3</ele>
        <time>2014-07-01T07:02:21.306Z</time>
      </trkpt>
      <trkpt lat="45.20728" lon="6.41909">
        <ele>1698.9</ele>
        <time>2014-07-01T07:02:24.283Z</time>
      </trkpt>
      <trkpt lat="45.20731" lon="6.41912">
        <ele>1699.4</ele>
        <time>2014-07-01T07:02:25.280Z</time>
      </trkpt>
      <trkpt lat="45.20739" lon="6.41917">
        <ele>1700.3</ele>
        <time>2014-07-01T07:02:27.316Z</time>
      </trkpt>
      <trkpt lat="45.20743" lon="6.41918">
        <ele>1700.6</ele>
        <time>2014-07-01T07:02:28.305Z</time>
      </trkpt>
      <trkpt lat="45.2075" lon="6.4192">
        <ele>1701</ele>
        <time>2014-07-01T07:02:30.285Z</time>
      </trkpt>
      <trkpt lat="45.20753" lon="6.41921">
        <ele>1701.2</ele>
        <time>2014-07-01T07:02:31.288Z</time>
      </trkpt>
      <trkpt lat="45.20761" lon="6.41922">
        <ele>1701.9</ele>
        <time>2014-07-01T07:02:33.271Z</time>
      </trkpt>
      <trkpt lat="45.20765" lon="6.41922">
        <ele>1702.2</ele>
        <time>2014-07-01T07:02:34.244Z</time>
      </trkpt>
      <trkpt lat="45.20772" lon="6.41924">
        <ele>1702.7</ele>
        <time>2014-07-01T07:02:36.296Z</time>
      </trkpt>
      <trkpt lat="45.20775" lon="6.41925">
        <ele>1702.9</ele>
        <time>2014-07-01T07:02:37.308Z</time>
      </trkpt>
      <trkpt lat="45.20782" lon="6.41926">
        <ele>1703.4</ele>
        <time>2014-07-01T07:02:39.249Z</time>
      </trkpt>
      <trkpt lat="45.20786" lon="6.41926">
        <ele>1703.6</ele>
        <time>2014-07-01T07:02:40.268Z</time>
      </trkpt>
      <trkpt lat="45.20792" lon="6.41928">
        <ele>1704</ele>
        <time>2014-07-01T07:02:42.297Z</time>
      </trkpt>
      <trkpt lat="45.20796" lon="6.41929">
        <ele>1704.3</ele>
        <time>2014-07-01T07:02:43.246Z</time>
      </trkpt>
      <trkpt lat="45.20804" lon="6.4193">
        <ele>1705.2</ele>
        <time>2014-07-01T07:02:45.308Z</time>
      </trkpt>
      <trkpt lat="45.20808" lon="6.41929">
        <ele>1705.7</ele>
        <time>2014-07-01T07:02:46.260Z</time>
      </trkpt>
      <trkpt lat="45.20816" lon="6.41929">
        <ele>1706.4</ele>
        <time>2014-07-01T07:02:48.368Z</time>
      </trkpt>
      <trkpt lat="45.20819" lon="6.41929">
        <ele>1706.6</ele>
        <time>2014-07-01T07:02:49.303Z</time>
      </trkpt>
      <trkpt lat="45.20826" lon="6.4193">
        <ele>1707.1</ele>
        <time>2014-07-01T07:02:51.328Z</time>
      </trkpt>
      <trkpt lat="45.2083" lon="6.4193">
        <ele>1707.2</ele>
        <time>2014-07-01T07:02:52.299Z</time>
      </trkpt>
      <trkpt lat="45.20839" lon="6.41928">
        <ele>1707.9</ele>
        <time>2014-07-01T07:02:54.306Z</time>
      </trkpt>
      <trkpt lat="45.20843" lon="6.41928">
        <ele>1708.1</ele>
        <time>2014-07-01T07:02:55.311Z</time>
      </trkpt>
      <trkpt lat="45.20851" lon="6.41926">
        <ele>1708.9</ele>
        <time>2014-07-01T07:02:57.338Z</time>
      </trkpt>
      <trkpt lat="45.20854" lon="6.41925">
        <ele>1709.3</ele>
        <time>2014-07-01T07:02:58.320Z</time>
      </trkpt>
      <trkpt lat="45.20862" lon="6.41923">
        <ele>1710.1</ele>
        <time>2014-07-01T07:03:00.277Z</time>
      </trkpt>
      <trkpt lat="45.20867" lon="6.41922">
        <ele>1710.4</ele>
        <time>2014-07-01T07:03:01.293Z</time>
      </trkpt>
      <trkpt lat="45.20874" lon="6.4192">
        <ele>1710.8</ele>
        <time>2014-07-01T07:03:03.280Z</time>
      </trkpt>
      <trkpt lat="45.20878" lon="6.41919">
        <ele>1711</ele>
        <time>2014-07-01T07:03:04.290Z</time>
      </trkpt>
      <trkpt lat="45.20887" lon="6.41918">
        <ele>1711.8</ele>
        <time>2014-07-01T07:03:06.307Z</time>
      </trkpt>
      <trkpt lat="45.20891" lon="6.41917">
        <ele>1712.1</ele>
        <time>2014-07-01T07:03:07.289Z</time>
      </trkpt>
      <trkpt lat="45.20899" lon="6.41916">
        <ele>1712.7</ele>
        <time>2014-07-01T07:03:09.275Z</time>
      </trkpt>
      <trkpt lat="45.20903" lon="6.41915">
        <ele>1713</ele>
        <time>2014-07-01T07:03:10.273Z</time>
      </trkpt>
      <trkpt lat="45.20911" lon="6.41913">
        <ele>1713.8</ele>
        <time>2014-07-01T07:03:12.272Z</time>
      </trkpt>
      <trkpt lat="45.20915" lon="6.41913">
        <ele>1714.1</ele>
        <time>2014-07-01T07:03:13.290Z</time>
      </trkpt>
      <trkpt lat="45.20924" lon="6.41912">
        <ele>1714.7</ele>
        <time>2014-07-01T07:03:15.260Z</time>
      </trkpt>
      <trkpt lat="45.20928" lon="6.41912">
        <ele>1715.1</ele>
        <time>2014-07-01T07:03:16.320Z</time>
      </trkpt>
      <trkpt lat="45.20935" lon="6.41911">
        <ele>1715.6</ele>
        <time>2014-07-01T07:03:18.318Z</time>
      </trkpt>
      <trkpt lat="45.20939" lon="6.4191">
        <ele>1715.9</ele>
        <time>2014-07-01T07:03:19.309Z</time>
      </trkpt>
      <trkpt lat="45.20947" lon="6.41909">
        <ele>1716.6</ele>
        <time>2014-07-01T07:03:21.286Z</time>
      </trkpt>
      <trkpt lat="45.20951" lon="6.41908">
        <ele>1717.1</ele>
        <time>2014-07-01T07:03:22.319Z</time>
      </trkpt>
      <trkpt lat="45.20959" lon="6.41906">
        <ele>1717.9</ele>
        <time>2014-07-01T07:03:24.248Z</time>
      </trkpt>
      <trkpt lat="45.20963" lon="6.41905">
        <ele>1718.3</ele>
        <time>2014-07-01T07:03:25.334Z</time>
      </trkpt>
      <trkpt lat="45.2097" lon="6.41902">
        <ele>1718.9</ele>
        <time>2014-07-01T07:03:27.308Z</time>
      </trkpt>
      <trkpt lat="45.20973" lon="6.419">
        <ele>1719.2</ele>
        <time>2014-07-01T07:03:28.329Z</time>
      </trkpt>
      <trkpt lat="45.20981" lon="6.41897">
        <ele>1719.9</ele>
        <time>2014-07-01T07:03:30.276Z</time>
      </trkpt>
      <trkpt lat="45.20985" lon="6.41896">
        <ele>1720.1</ele>
        <time>2014-07-01T07:03:31.271Z</time>
      </trkpt>
      <trkpt lat="45.20993" lon="6.41896">
        <ele>1720.6</ele>
        <time>2014-07-01T07:03:33.277Z</time>
      </trkpt>
      <trkpt lat="45.20997" lon="6.41897">
        <ele>1720.9</ele>
        <time>2014-07-01T07:03:34.278Z</time>
      </trkpt>
      <trkpt lat="45.21004" lon="6.41901">
        <ele>1721.4</ele>
        <time>2014-07-01T07:03:36.295Z</time>
      </trkpt>
      <trkpt lat="45.21007" lon="6.41903">
        <ele>1721.6</ele>
        <time>2014-07-01T07:03:37.285Z</time>
      </trkpt>
      <trkpt lat="45.21014" lon="6.41909">
        <ele>1722.5</ele>
        <time>2014-07-01T07:03:39.270Z</time>
      </trkpt>
      <trkpt lat="45.21016" lon="6.41912">
        <ele>1722.7</ele>
        <time>2014-07-01T07:03:40.269Z</time>
      </trkpt>
      <trkpt lat="45.2102" lon="6.4192">
        <ele>1723.2</ele>
        <time>2014-07-01T07:03:42.271Z</time>
      </trkpt>
      <trkpt lat="45.21022" lon="6.41924">
        <ele>1723.6</ele>
        <time>2014-07-01T07:03:43.256Z</time>
      </trkpt>
      <trkpt lat="45.21025" lon="6.41934">
        <ele>1724.5</ele>
        <time>2014-07-01T07:03:45.258Z</time>
      </trkpt>
      <trkpt lat="45.21025" lon="6.4194">
        <ele>1725</ele>
        <time>2014-07-01T07:03:46.304Z</time>
      </trkpt>
      <trkpt lat="45.21025" lon="6.4195">
        <ele>1725.6</ele>
        <time>2014-07-01T07:03:48.329Z</time>
      </trkpt>
      <trkpt lat="45.21025" lon="6.41955">
        <ele>1726</ele>
        <time>2014-07-01T07:03:49.314Z</time>
      </trkpt>
      <trkpt lat="45.21024" lon="6.41965">
        <ele>1726.7</ele>
        <time>2014-07-01T07:03:51.295Z</time>
      </trkpt>
      <trkpt lat="45.21024" lon="6.4197">
        <ele>1727</ele>
        <time>2014-07-01T07:03:52.304Z</time>
      </trkpt>
      <trkpt lat="45.21027" lon="6.41979">
        <ele>1727.7</ele>
        <time>2014-07-01T07:03:54.302Z</time>
      </trkpt>
      <trkpt lat="45.21029" lon="6.41981">
        <ele>1728</ele>
        <time>2014-07-01T07:03:55.330Z</time>
      </trkpt>
      <trkpt lat="45.21037" lon="6.41975">
        <ele>1729</ele>
        <time>2014-07-01T07:03:58.307Z</time>
      </trkpt>
      <trkpt lat="45.21038" lon="6.4197">
        <ele>1729.1</ele>
        <time>2014-07-01T07:03:59.284Z</time>
      </trkpt>
      <trkpt lat="45.21041" lon="6.41961">
        <ele>1729.2</ele>
        <time>2014-07-01T07:04:01.270Z</time>
      </trkpt>
      <trkpt lat="45.21042" lon="6.41956">
        <ele>1729.3</ele>
        <time>2014-07-01T07:04:02.304Z</time>
      </trkpt>
      <trkpt lat="45.21045" lon="6.41947">
        <ele>1729.5</ele>
        <time>2014-07-01T07:04:04.277Z</time>
      </trkpt>
      <trkpt lat="45.21047" lon="6.41943">
        <ele>1729.6</ele>
        <time>2014-07-01T07:04:05.276Z</time>
      </trkpt>
      <trkpt lat="45.21051" lon="6.41934">
        <ele>1729.7</ele>
        <time>2014-07-01T07:04:07.311Z</time>
      </trkpt>
      <trkpt lat="45.21053" lon="6.4193">
        <ele>1729.8</ele>
        <time>2014-07-01T07:04:08.311Z</time>
      </trkpt>
      <trkpt lat="45.21057" lon="6.41921">
        <ele>1730.1</ele>
        <time>2014-07-01T07:04:10.305Z</time>
      </trkpt>
      <trkpt lat="45.21059" lon="6.41917">
        <ele>1730.2</ele>
        <time>2014-07-01T07:04:11.285Z</time>
      </trkpt>
      <trkpt lat="45.21064" lon="6.41908">
        <ele>1730.7</ele>
        <time>2014-07-01T07:04:13.272Z</time>
      </trkpt>
      <trkpt lat="45.21066" lon="6.41904">
        <ele>1730.9</ele>
        <time>2014-07-01T07:04:14.283Z</time>
      </trkpt>
      <trkpt lat="45.2107" lon="6.41894">
        <ele>1731.4</ele>
        <time>2014-07-01T07:04:16.305Z</time>
      </trkpt>
      <trkpt lat="45.21072" lon="6.4189">
        <ele>1731.8</ele>
        <time>2014-07-01T07:04:17.307Z</time>
      </trkpt>
      <trkpt lat="45.21076" lon="6.41882">
        <ele>1732.4</ele>
        <time>2014-07-01T07:04:19.292Z</time>
      </trkpt>
      <trkpt lat="45.21077" lon="6.41877">
        <ele>1732.7</ele>
        <time>2014-07-01T07:04:20.349Z</time>
      </trkpt>
      <trkpt lat="45.21083" lon="6.4187">
        <ele>1733.4</ele>
        <time>2014-07-01T07:04:22.296Z</time>
      </trkpt>
      <trkpt lat="45.21086" lon="6.41867">
        <ele>1733.8</ele>
        <time>2014-07-01T07:04:23.989Z</time>
      </trkpt>
      <trkpt lat="45.21094" lon="6.41861">
        <ele>1734.8</ele>
        <time>2014-07-01T07:04:27.019Z</time>
      </trkpt>
      <trkpt lat="45.21096" lon="6.4186">
        <ele>1735.1</ele>
        <time>2014-07-01T07:04:28.014Z</time>
      </trkpt>
      <trkpt lat="45.21102" lon="6.41856">
        <ele>1736.3</ele>
        <time>2014-07-01T07:04:29.983Z</time>
      </trkpt>
      <trkpt lat="45.21106" lon="6.41854">
        <ele>1736.9</ele>
        <time>2014-07-01T07:04:30.973Z</time>
      </trkpt>
      <trkpt lat="45.21113" lon="6.4185">
        <ele>1737.9</ele>
        <time>2014-07-01T07:04:32.996Z</time>
      </trkpt>
      <trkpt lat="45.21116" lon="6.41848">
        <ele>1738.4</ele>
        <time>2014-07-01T07:04:34.003Z</time>
      </trkpt>
      <trkpt lat="45.21123" lon="6.41844">
        <ele>1739.3</ele>
        <time>2014-07-01T07:04:35.991Z</time>
      </trkpt>
      <trkpt lat="45.21127" lon="6.41843">
        <ele>1739.7</ele>
        <time>2014-07-01T07:04:36.971Z</time>
      </trkpt>
      <trkpt lat="45.21134" lon="6.4184">
        <ele>1740.6</ele>
        <time>2014-07-01T07:04:39.005Z</time>
      </trkpt>
      <trkpt lat="45.21137" lon="6.41838">
        <ele>1741</ele>
        <time>2014-07-01T07:04:39.983Z</time>
      </trkpt>
      <trkpt lat="45.21144" lon="6.41837">
        <ele>1741.7</ele>
        <time>2014-07-01T07:04:41.977Z</time>
      </trkpt>
      <trkpt lat="45.21148" lon="6.41837">
        <ele>1741.9</ele>
        <time>2014-07-01T07:04:42.975Z</time>
      </trkpt>
      <trkpt lat="45.21156" lon="6.41837">
        <ele>1742.5</ele>
        <time>2014-07-01T07:04:45.990Z</time>
      </trkpt>
      <trkpt lat="45.21159" lon="6.41838">
        <ele>1742.5</ele>
        <time>2014-07-01T07:04:46.988Z</time>
      </trkpt>
      <trkpt lat="45.21168" lon="6.41839">
        <ele>1743.1</ele>
        <time>2014-07-01T07:04:49.989Z</time>
      </trkpt>
      <trkpt lat="45.21171" lon="6.4184">
        <ele>1743.3</ele>
        <time>2014-07-01T07:04:51.006Z</time>
      </trkpt>
      <trkpt lat="45.21179" lon="6.41843">
        <ele>1743.9</ele>
        <time>2014-07-01T07:04:53.985Z</time>
      </trkpt>
      <trkpt lat="45.21181" lon="6.41845">
        <ele>1744.1</ele>
        <time>2014-07-01T07:04:54.995Z</time>
      </trkpt>
      <trkpt lat="45.21189" lon="6.41848">
        <ele>1744.8</ele>
        <time>2014-07-01T07:04:58.024Z</time>
      </trkpt>
      <trkpt lat="45.21192" lon="6.41848">
        <ele>1744.9</ele>
        <time>2014-07-01T07:04:58.996Z</time>
      </trkpt>
      <trkpt lat="45.21198" lon="6.4185">
        <ele>1745.5</ele>
        <time>2014-07-01T07:05:00.998Z</time>
      </trkpt>
      <trkpt lat="45.21202" lon="6.4185">
        <ele>1745.8</ele>
        <time>2014-07-01T07:05:01.998Z</time>
      </trkpt>
      <trkpt lat="45.2121" lon="6.41849">
        <ele>1747.1</ele>
        <time>2014-07-01T07:05:04.016Z</time>
      </trkpt>
      <trkpt lat="45.21214" lon="6.41848">
        <ele>1747.8</ele>
        <time>2014-07-01T07:05:05.000Z</time>
      </trkpt>
      <trkpt lat="45.21222" lon="6.41845">
        <ele>1748.9</ele>
        <time>2014-07-01T07:05:07.002Z</time>
      </trkpt>
      <trkpt lat="45.21225" lon="6.41844">
        <ele>1749.5</ele>
        <time>2014-07-01T07:05:08.001Z</time>
      </trkpt>
      <trkpt lat="45.21232" lon="6.4184">
        <ele>1750.5</ele>
        <time>2014-07-01T07:05:10.000Z</time>
      </trkpt>
      <trkpt lat="45.21235" lon="6.41838">
        <ele>1750.9</ele>
        <time>2014-07-01T07:05:11.011Z</time>
      </trkpt>
      <trkpt lat="45.21242" lon="6.41833">
        <ele>1751.7</ele>
        <time>2014-07-01T07:05:12.997Z</time>
      </trkpt>
      <trkpt lat="45.21245" lon="6.4183">
        <ele>1752</ele>
        <time>2014-07-01T07:05:14.013Z</time>
      </trkpt>
      <trkpt lat="45.21251" lon="6.41825">
        <ele>1752.4</ele>
        <time>2014-07-01T07:05:16.072Z</time>
      </trkpt>
      <trkpt lat="45.21253" lon="6.41824">
        <ele>1752.6</ele>
        <time>2014-07-01T07:05:16.977Z</time>
      </trkpt>
      <trkpt lat="45.21254" lon="6.41823">
        <ele>1753</ele>
        <time>2014-07-01T07:05:28.011Z</time>
      </trkpt>
      <trkpt lat="45.21254" lon="6.41823">
        <ele>1753</ele>
        <time>2014-07-01T07:05:28.979Z</time>
      </trkpt>
      <trkpt lat="45.21254" lon="6.41823">
        <ele>1753</ele>
        <time>2014-07-01T07:06:28.010Z</time>
      </trkpt>
      <trkpt lat="45.21254" lon="6.41823">
        <ele>1753</ele>
        <time>2014-07-01T07:06:29.010Z</time>
      </trkpt>
      <trkpt lat="45.21261" lon="6.4182">
        <ele>1756.8</ele>
        <time>2014-07-01T07:06:34.997Z</time>
      </trkpt>
      <trkpt lat="45.21263" lon="6.41818">
        <ele>1757</ele>
        <time>2014-07-01T07:06:35.996Z</time>
      </trkpt>
      <trkpt lat="45.21269" lon="6.41813">
        <ele>1757.6</ele>
        <time>2014-07-01T07:06:39.024Z</time>
      </trkpt>
      <trkpt lat="45.21272" lon="6.41812">
        <ele>1757.8</ele>
        <time>2014-07-01T07:06:40.010Z</time>
      </trkpt>
      <trkpt lat="45.21278" lon="6.4181">
        <ele>1758.3</ele>
        <time>2014-07-01T07:06:42.010Z</time>
      </trkpt>
      <trkpt lat="45.21282" lon="6.41809">
        <ele>1758.6</ele>
        <time>2014-07-01T07:06:43.012Z</time>
      </trkpt>
      <trkpt lat="45.21288" lon="6.41808">
        <ele>1759</ele>
        <time>2014-07-01T07:06:45.003Z</time>
      </trkpt>
      <trkpt lat="45.21291" lon="6.41809">
        <ele>1759.2</ele>
        <time>2014-07-01T07:06:46.008Z</time>
      </trkpt>
      <trkpt lat="45.21297" lon="6.4181">
        <ele>1759.4</ele>
        <time>2014-07-01T07:06:48.025Z</time>
      </trkpt>
      <trkpt lat="45.213" lon="6.41811">
        <ele>1759.6</ele>
        <time>2014-07-01T07:06:49.041Z</time>
      </trkpt>
      <trkpt lat="45.21307" lon="6.41812">
        <ele>1759.9</ele>
        <time>2014-07-01T07:06:51.087Z</time>
      </trkpt>
      <trkpt lat="45.2131" lon="6.41812">
        <ele>1760.1</ele>
        <time>2014-07-01T07:06:52.015Z</time>
      </trkpt>
      <trkpt lat="45.21316" lon="6.41811">
        <ele>1760.4</ele>
        <time>2014-07-01T07:06:54.015Z</time>
      </trkpt>
      <trkpt lat="45.21319" lon="6.4181">
        <ele>1760.6</ele>
        <time>2014-07-01T07:06:55.029Z</time>
      </trkpt>
      <trkpt lat="45.21327" lon="6.41806">
        <ele>1761.4</ele>
        <time>2014-07-01T07:06:58.025Z</time>
      </trkpt>
      <trkpt lat="45.2133" lon="6.41804">
        <ele>1761.6</ele>
        <time>2014-07-01T07:06:59.012Z</time>
      </trkpt>
      <trkpt lat="45.21337" lon="6.41801">
        <ele>1762.1</ele>
        <time>2014-07-01T07:07:00.998Z</time>
      </trkpt>
      <trkpt lat="45.2134" lon="6.41799">
        <ele>1762.4</ele>
        <time>2014-07-01T07:07:02.017Z</time>
      </trkpt>
      <trkpt lat="45.21346" lon="6.41797">
        <ele>1762.8</ele>
        <time>2014-07-01T07:07:04.010Z</time>
      </trkpt>
      <trkpt lat="45.21349" lon="6.41796">
        <ele>1763</ele>
        <time>2014-07-01T07:07:05.017Z</time>
      </trkpt>
      <trkpt lat="45.21355" lon="6.41794">
        <ele>1763.2</ele>
        <time>2014-07-01T07:07:07.028Z</time>
      </trkpt>
      <trkpt lat="45.21358" lon="6.41793">
        <ele>1763.4</ele>
        <time>2014-07-01T07:07:08.034Z</time>
      </trkpt>
      <trkpt lat="45.21366" lon="6.41793">
        <ele>1763.7</ele>
        <time>2014-07-01T07:07:11.040Z</time>
      </trkpt>
      <trkpt lat="45.21368" lon="6.41793">
        <ele>1763.9</ele>
        <time>2014-07-01T07:07:12.012Z</time>
      </trkpt>
      <trkpt lat="45.21374" lon="6.41793">
        <ele>1764.6</ele>
        <time>2014-07-01T07:07:15.011Z</time>
      </trkpt>
      <trkpt lat="45.21377" lon="6.41793">
        <ele>1764.8</ele>
        <time>2014-07-01T07:07:16.071Z</time>
      </trkpt>
      <trkpt lat="45.21384" lon="6.41792">
        <ele>1765.2</ele>
        <time>2014-07-01T07:07:19.027Z</time>
      </trkpt>
      <trkpt lat="45.21386" lon="6.41791">
        <ele>1765.2</ele>
        <time>2014-07-01T07:07:20.046Z</time>
      </trkpt>
      <trkpt lat="45.21393" lon="6.4179">
        <ele>1765.3</ele>
        <time>2014-07-01T07:07:23.035Z</time>
      </trkpt>
      <trkpt lat="45.21396" lon="6.41788">
        <ele>1765.2</ele>
        <time>2014-07-01T07:07:24.033Z</time>
      </trkpt>
      <trkpt lat="45.21403" lon="6.41783">
        <ele>1764.7</ele>
        <time>2014-07-01T07:07:27.027Z</time>
      </trkpt>
      <trkpt lat="45.21406" lon="6.41781">
        <ele>1764.7</ele>
        <time>2014-07-01T07:07:28.048Z</time>
      </trkpt>
      <trkpt lat="45.21412" lon="6.41778">
        <ele>1764.7</ele>
        <time>2014-07-01T07:07:30.006Z</time>
      </trkpt>
      <trkpt lat="45.21415" lon="6.41777">
        <ele>1764.8</ele>
        <time>2014-07-01T07:07:31.007Z</time>
      </trkpt>
      <trkpt lat="45.21421" lon="6.41775">
        <ele>1764.9</ele>
        <time>2014-07-01T07:07:33.001Z</time>
      </trkpt>
      <trkpt lat="45.21424" lon="6.41773">
        <ele>1764.9</ele>
        <time>2014-07-01T07:07:34.022Z</time>
      </trkpt>
      <trkpt lat="45.2143" lon="6.41771">
        <ele>1764.9</ele>
        <time>2014-07-01T07:07:36.026Z</time>
      </trkpt>
      <trkpt lat="45.21433" lon="6.41769">
        <ele>1764.9</ele>
        <time>2014-07-01T07:07:37.007Z</time>
      </trkpt>
      <trkpt lat="45.2144" lon="6.41767">
        <ele>1765</ele>
        <time>2014-07-01T07:07:38.991Z</time>
      </trkpt>
      <trkpt lat="45.21443" lon="6.41766">
        <ele>1765</ele>
        <time>2014-07-01T07:07:39.995Z</time>
      </trkpt>
      <trkpt lat="45.21449" lon="6.41764">
        <ele>1765</ele>
        <time>2014-07-01T07:07:42.023Z</time>
      </trkpt>
      <trkpt lat="45.21452" lon="6.41763">
        <ele>1764.9</ele>
        <time>2014-07-01T07:07:42.998Z</time>
      </trkpt>
      <trkpt lat="45.21458" lon="6.4176">
        <ele>1765</ele>
        <time>2014-07-01T07:07:45.010Z</time>
      </trkpt>
      <trkpt lat="45.21462" lon="6.41759">
        <ele>1765.1</ele>
        <time>2014-07-01T07:07:46.014Z</time>
      </trkpt>
      <trkpt lat="45.21469" lon="6.41755">
        <ele>1765.1</ele>
        <time>2014-07-01T07:07:48.007Z</time>
      </trkpt>
      <trkpt lat="45.21472" lon="6.41753">
        <ele>1765.2</ele>
        <time>2014-07-01T07:07:49.005Z</time>
      </trkpt>
      <trkpt lat="45.21479" lon="6.4175">
        <ele>1765.3</ele>
        <time>2014-07-01T07:07:51.057Z</time>
      </trkpt>
      <trkpt lat="45.21482" lon="6.41748">
        <ele>1765.3</ele>
        <time>2014-07-01T07:07:52.022Z</time>
      </trkpt>
      <trkpt lat="45.21488" lon="6.41744">
        <ele>1765.3</ele>
        <time>2014-07-01T07:07:54.015Z</time>
      </trkpt>
      <trkpt lat="45.21491" lon="6.41741">
        <ele>1765.3</ele>
        <time>2014-07-01T07:07:55.001Z</time>
      </trkpt>
      <trkpt lat="45.21498" lon="6.41736">
        <ele>1765</ele>
        <time>2014-07-01T07:07:57.031Z</time>
      </trkpt>
      <trkpt lat="45.21502" lon="6.41732">
        <ele>1764.9</ele>
        <time>2014-07-01T07:07:57.991Z</time>
      </trkpt>
      <trkpt lat="45.21506" lon="6.41729">
        <ele>1764.7</ele>
        <time>2014-07-01T07:07:59.023Z</time>
      </trkpt>
      <trkpt lat="45.2151" lon="6.41725">
        <ele>1764.5</ele>
        <time>2014-07-01T07:08:00.026Z</time>
      </trkpt>
      <trkpt lat="45.21516" lon="6.4172">
        <ele>1763.5</ele>
        <time>2014-07-01T07:08:01.000Z</time>
      </trkpt>
      <trkpt lat="45.2152" lon="6.41717">
        <ele>1763.1</ele>
        <time>2014-07-01T07:08:01.995Z</time>
      </trkpt>
      <trkpt lat="45.21524" lon="6.41713">
        <ele>1762.7</ele>
        <time>2014-07-01T07:08:03.009Z</time>
      </trkpt>
      <trkpt lat="45.21529" lon="6.41708">
        <ele>1762.1</ele>
        <time>2014-07-01T07:08:04.011Z</time>
      </trkpt>
      <trkpt lat="45.21533" lon="6.41704">
        <ele>1761.7</ele>
        <time>2014-07-01T07:08:05.000Z</time>
      </trkpt>
      <trkpt lat="45.21537" lon="6.41699">
        <ele>1761.3</ele>
        <time>2014-07-01T07:08:06.012Z</time>
      </trkpt>
      <trkpt lat="45.2154" lon="6.41695">
        <ele>1761</ele>
        <time>2014-07-01T07:08:07.025Z</time>
      </trkpt>
      <trkpt lat="45.21544" lon="6.41691">
        <ele>1760.8</ele>
        <time>2014-07-01T07:08:07.983Z</time>
      </trkpt>
      <trkpt lat="45.2155" lon="6.41684">
        <ele>1760.6</ele>
        <time>2014-07-01T07:08:09.997Z</time>
      </trkpt>
      <trkpt lat="45.21553" lon="6.41682">
        <ele>1760.5</ele>
        <time>2014-07-01T07:08:10.977Z</time>
      </trkpt>
      <trkpt lat="45.2156" lon="6.41676">
        <ele>1760.1</ele>
        <time>2014-07-01T07:08:12.999Z</time>
      </trkpt>
      <trkpt lat="45.21563" lon="6.41674">
        <ele>1760</ele>
        <time>2014-07-01T07:08:14.002Z</time>
      </trkpt>
      <trkpt lat="45.2157" lon="6.41667">
        <ele>1759.9</ele>
        <time>2014-07-01T07:08:16.020Z</time>
      </trkpt>
      <trkpt lat="45.21574" lon="6.41664">
        <ele>1759.9</ele>
        <time>2014-07-01T07:08:17.016Z</time>
      </trkpt>
      <trkpt lat="45.2158" lon="6.41655">
        <ele>1759.9</ele>
        <time>2014-07-01T07:08:19.017Z</time>
      </trkpt>
      <trkpt lat="45.21582" lon="6.41651">
        <ele>1760</ele>
        <time>2014-07-01T07:08:20.001Z</time>
      </trkpt>
      <trkpt lat="45.21588" lon="6.41642">
        <ele>1760</ele>
        <time>2014-07-01T07:08:22.010Z</time>
      </trkpt>
      <trkpt lat="45.2159" lon="6.41637">
        <ele>1760</ele>
        <time>2014-07-01T07:08:23.009Z</time>
      </trkpt>
      <trkpt lat="45.21594" lon="6.41627">
        <ele>1759.9</ele>
        <time>2014-07-01T07:08:24.991Z</time>
      </trkpt>
      <trkpt lat="45.21596" lon="6.41621">
        <ele>1759.9</ele>
        <time>2014-07-01T07:08:26.019Z</time>
      </trkpt>
      <trkpt lat="45.21601" lon="6.41611">
        <ele>1760.2</ele>
        <time>2014-07-01T07:08:28.030Z</time>
      </trkpt>
      <trkpt lat="45.21603" lon="6.41605">
        <ele>1760.2</ele>
        <time>2014-07-01T07:08:29.015Z</time>
      </trkpt>
      <trkpt lat="45.21606" lon="6.41594">
        <ele>1760.2</ele>
        <time>2014-07-01T07:08:30.988Z</time>
      </trkpt>
      <trkpt lat="45.21608" lon="6.41589">
        <ele>1760.2</ele>
        <time>2014-07-01T07:08:32.026Z</time>
      </trkpt>
      <trkpt lat="45.21611" lon="6.41578">
        <ele>1760.4</ele>
        <time>2014-07-01T07:08:34.008Z</time>
      </trkpt>
      <trkpt lat="45.2161" lon="6.41572">
        <ele>1760.5</ele>
        <time>2014-07-01T07:08:35.024Z</time>
      </trkpt>
      <trkpt lat="45.21607" lon="6.41561">
        <ele>1760.7</ele>
        <time>2014-07-01T07:08:37.012Z</time>
      </trkpt>
      <trkpt lat="45.21605" lon="6.41554">
        <ele>1760.8</ele>
        <time>2014-07-01T07:08:37.989Z</time>
      </trkpt>
      <trkpt lat="45.21603" lon="6.41547">
        <ele>1760.9</ele>
        <time>2014-07-01T07:08:39.006Z</time>
      </trkpt>
      <trkpt lat="45.21602" lon="6.41541">
        <ele>1761</ele>
        <time>2014-07-01T07:08:40.016Z</time>
      </trkpt>
      <trkpt lat="45.21602" lon="6.41531">
        <ele>1761.2</ele>
        <time>2014-07-01T07:08:41.992Z</time>
      </trkpt>
      <trkpt lat="45.21604" lon="6.41525">
        <ele>1761.2</ele>
        <time>2014-07-01T07:08:43.009Z</time>
      </trkpt>
      <trkpt lat="45.2161" lon="6.41518">
        <ele>1761</ele>
        <time>2014-07-01T07:08:45.022Z</time>
      </trkpt>
      <trkpt lat="45.21613" lon="6.41516">
        <ele>1760.9</ele>
        <time>2014-07-01T07:08:46.062Z</time>
      </trkpt>
      <trkpt lat="45.2162" lon="6.41514">
        <ele>1760.8</ele>
        <time>2014-07-01T07:08:48.028Z</time>
      </trkpt>
      <trkpt lat="45.21623" lon="6.41514">
        <ele>1760.9</ele>
        <time>2014-07-01T07:08:48.992Z</time>
      </trkpt>
      <trkpt lat="45.2163" lon="6.41512">
        <ele>1760.8</ele>
        <time>2014-07-01T07:08:50.985Z</time>
      </trkpt>
      <trkpt lat="45.21635" lon="6.41512">
        <ele>1760.8</ele>
        <time>2014-07-01T07:08:51.981Z</time>
      </trkpt>
      <trkpt lat="45.21643" lon="6.41511">
        <ele>1760.6</ele>
        <time>2014-07-01T07:08:53.986Z</time>
      </trkpt>
      <trkpt lat="45.21647" lon="6.4151">
        <ele>1760.5</ele>
        <time>2014-07-01T07:08:55.007Z</time>
      </trkpt>
      <trkpt lat="45.21656" lon="6.41508">
        <ele>1760.3</ele>
        <time>2014-07-01T07:08:57.062Z</time>
      </trkpt>
      <trkpt lat="45.2166" lon="6.41507">
        <ele>1760.2</ele>
        <time>2014-07-01T07:08:57.996Z</time>
      </trkpt>
      <trkpt lat="45.21665" lon="6.41506">
        <ele>1760</ele>
        <time>2014-07-01T07:08:59.044Z</time>
      </trkpt>
      <trkpt lat="45.2167" lon="6.41506">
        <ele>1759.9</ele>
        <time>2014-07-01T07:08:59.991Z</time>
      </trkpt>
      <trkpt lat="45.21678" lon="6.41504">
        <ele>1759.6</ele>
        <time>2014-07-01T07:09:01.988Z</time>
      </trkpt>
      <trkpt lat="45.21683" lon="6.41503">
        <ele>1759.4</ele>
        <time>2014-07-01T07:09:02.986Z</time>
      </trkpt>
      <trkpt lat="45.21691" lon="6.415">
        <ele>1759</ele>
        <time>2014-07-01T07:09:03.060Z</time>
      </trkpt>
      <trkpt lat="45.21695" lon="6.41498">
        <ele>1758.8</ele>
        <time>2014-07-01T07:09:04.118Z</time>
      </trkpt>
      <trkpt lat="45.21703" lon="6.41494">
        <ele>1758.4</ele>
        <time>2014-07-01T07:09:06.104Z</time>
      </trkpt>
      <trkpt lat="45.21707" lon="6.41492">
        <ele>1758.2</ele>
        <time>2014-07-01T07:09:07.121Z</time>
      </trkpt>
      <trkpt lat="45.21712" lon="6.41489">
        <ele>1758</ele>
        <time>2014-07-01T07:09:08.052Z</time>
      </trkpt>
      <trkpt lat="45.21718" lon="6.41487">
        <ele>1757.6</ele>
        <time>2014-07-01T07:09:09.110Z</time>
      </trkpt>
      <trkpt lat="45.21723" lon="6.41484">
        <ele>1757.3</ele>
        <time>2014-07-01T07:09:10.066Z</time>
      </trkpt>
      <trkpt lat="45.21728" lon="6.4148">
        <ele>1757</ele>
        <time>2014-07-01T07:09:11.091Z</time>
      </trkpt>
      <trkpt lat="45.21733" lon="6.41476">
        <ele>1756.6</ele>
        <time>2014-07-01T07:09:12.065Z</time>
      </trkpt>
      <trkpt lat="45.21738" lon="6.41473">
        <ele>1756.2</ele>
        <time>2014-07-01T07:09:13.087Z</time>
      </trkpt>
      <trkpt lat="45.21743" lon="6.41469">
        <ele>1755.9</ele>
        <time>2014-07-01T07:09:14.145Z</time>
      </trkpt>
      <trkpt lat="45.21748" lon="6.41465">
        <ele>1755.5</ele>
        <time>2014-07-01T07:09:15.065Z</time>
      </trkpt>
      <trkpt lat="45.21753" lon="6.41461">
        <ele>1755.1</ele>
        <time>2014-07-01T07:09:16.071Z</time>
      </trkpt>
      <trkpt lat="45.21759" lon="6.41457">
        <ele>1754.6</ele>
        <time>2014-07-01T07:09:17.121Z</time>
      </trkpt>
      <trkpt lat="45.21764" lon="6.41453">
        <ele>1754.1</ele>
        <time>2014-07-01T07:09:18.067Z</time>
      </trkpt>
      <trkpt lat="45.21771" lon="6.41448">
        <ele>1752.8</ele>
        <time>2014-07-01T07:09:19.083Z</time>
      </trkpt>
      <trkpt lat="45.21778" lon="6.41443">
        <ele>1751.9</ele>
        <time>2014-07-01T07:09:20.080Z</time>
      </trkpt>
      <trkpt lat="45.21783" lon="6.41439">
        <ele>1751.5</ele>
        <time>2014-07-01T07:09:21.074Z</time>
      </trkpt>
      <trkpt lat="45.21788" lon="6.41436">
        <ele>1751.1</ele>
        <time>2014-07-01T07:09:22.093Z</time>
      </trkpt>
      <trkpt lat="45.21794" lon="6.41432">
        <ele>1750.6</ele>
        <time>2014-07-01T07:09:23.078Z</time>
      </trkpt>
      <trkpt lat="45.21799" lon="6.41427">
        <ele>1749.9</ele>
        <time>2014-07-01T07:09:24.079Z</time>
      </trkpt>
      <trkpt lat="45.21804" lon="6.41423">
        <ele>1749.3</ele>
        <time>2014-07-01T07:09:25.062Z</time>
      </trkpt>
      <trkpt lat="45.21809" lon="6.4142">
        <ele>1748.7</ele>
        <time>2014-07-01T07:09:26.098Z</time>
      </trkpt>
      <trkpt lat="45.21814" lon="6.41416">
        <ele>1748.2</ele>
        <time>2014-07-01T07:09:27.098Z</time>
      </trkpt>
      <trkpt lat="45.21818" lon="6.41412">
        <ele>1747.7</ele>
        <time>2014-07-01T07:09:28.107Z</time>
      </trkpt>
      <trkpt lat="45.21822" lon="6.41408">
        <ele>1747.4</ele>
        <time>2014-07-01T07:09:29.070Z</time>
      </trkpt>
      <trkpt lat="45.21825" lon="6.41404">
        <ele>1747.2</ele>
        <time>2014-07-01T07:09:30.081Z</time>
      </trkpt>
      <trkpt lat="45.21828" lon="6.41398">
        <ele>1747.1</ele>
        <time>2014-07-01T07:09:31.086Z</time>
      </trkpt>
      <trkpt lat="45.21831" lon="6.41394">
        <ele>1746.9</ele>
        <time>2014-07-01T07:09:32.072Z</time>
      </trkpt>
      <trkpt lat="45.21835" lon="6.41389">
        <ele>1746.8</ele>
        <time>2014-07-01T07:09:33.062Z</time>
      </trkpt>
      <trkpt lat="45.21839" lon="6.41386">
        <ele>1746.6</ele>
        <time>2014-07-01T07:09:34.095Z</time>
      </trkpt>
      <trkpt lat="45.21843" lon="6.41381">
        <ele>1746.4</ele>
        <time>2014-07-01T07:09:35.076Z</time>
      </trkpt>
      <trkpt lat="45.21847" lon="6.41377">
        <ele>1746.3</ele>
        <time>2014-07-01T07:09:36.062Z</time>
      </trkpt>
      <trkpt lat="45.21851" lon="6.41375">
        <ele>1746.1</ele>
        <time>2014-07-01T07:09:37.079Z</time>
      </trkpt>
      <trkpt lat="45.21855" lon="6.41372">
        <ele>1745.9</ele>
        <time>2014-07-01T07:09:38.087Z</time>
      </trkpt>
      <trkpt lat="45.21859" lon="6.4137">
        <ele>1745.7</ele>
        <time>2014-07-01T07:09:39.083Z</time>
      </trkpt>
      <trkpt lat="45.21864" lon="6.41367">
        <ele>1745.3</ele>
        <time>2014-07-01T07:09:40.084Z</time>
      </trkpt>
      <trkpt lat="45.21869" lon="6.41365">
        <ele>1745.1</ele>
        <time>2014-07-01T07:09:41.088Z</time>
      </trkpt>
      <trkpt lat="45.21874" lon="6.41362">
        <ele>1744.9</ele>
        <time>2014-07-01T07:09:42.058Z</time>
      </trkpt>
      <trkpt lat="45.21878" lon="6.41358">
        <ele>1744.7</ele>
        <time>2014-07-01T07:09:43.070Z</time>
      </trkpt>
      <trkpt lat="45.21883" lon="6.41355">
        <ele>1744.6</ele>
        <time>2014-07-01T07:09:44.135Z</time>
      </trkpt>
      <trkpt lat="45.21887" lon="6.41351">
        <ele>1744.4</ele>
        <time>2014-07-01T07:09:45.133Z</time>
      </trkpt>
      <trkpt lat="45.21892" lon="6.41347">
        <ele>1744.3</ele>
        <time>2014-07-01T07:09:46.123Z</time>
      </trkpt>
      <trkpt lat="45.21896" lon="6.41343">
        <ele>1744</ele>
        <time>2014-07-01T07:09:47.101Z</time>
      </trkpt>
      <trkpt lat="45.219" lon="6.41339">
        <ele>1743.6</ele>
        <time>2014-07-01T07:09:48.064Z</time>
      </trkpt>
      <trkpt lat="45.21904" lon="6.41335">
        <ele>1743.3</ele>
        <time>2014-07-01T07:09:49.158Z</time>
      </trkpt>
      <trkpt lat="45.21909" lon="6.41331">
        <ele>1743</ele>
        <time>2014-07-01T07:09:50.105Z</time>
      </trkpt>
      <trkpt lat="45.21914" lon="6.41329">
        <ele>1742.7</ele>
        <time>2014-07-01T07:09:51.089Z</time>
      </trkpt>
      <trkpt lat="45.21918" lon="6.41326">
        <ele>1742.6</ele>
        <time>2014-07-01T07:09:52.121Z</time>
      </trkpt>
      <trkpt lat="45.21923" lon="6.41325">
        <ele>1742.3</ele>
        <time>2014-07-01T07:09:53.127Z</time>
      </trkpt>
      <trkpt lat="45.21928" lon="6.41324">
        <ele>1742</ele>
        <time>2014-07-01T07:09:54.108Z</time>
      </trkpt>
      <trkpt lat="45.21933" lon="6.41323">
        <ele>1741.7</ele>
        <time>2014-07-01T07:09:55.138Z</time>
      </trkpt>
      <trkpt lat="45.21938" lon="6.41322">
        <ele>1741.3</ele>
        <time>2014-07-01T07:09:56.132Z</time>
      </trkpt>
      <trkpt lat="45.21943" lon="6.41321">
        <ele>1741</ele>
        <time>2014-07-01T07:09:57.119Z</time>
      </trkpt>
      <trkpt lat="45.21948" lon="6.41321">
        <ele>1740.7</ele>
        <time>2014-07-01T07:09:58.119Z</time>
      </trkpt>
      <trkpt lat="45.21953" lon="6.41321">
        <ele>1740.4</ele>
        <time>2014-07-01T07:09:59.122Z</time>
      </trkpt>
      <trkpt lat="45.21958" lon="6.41321">
        <ele>1740</ele>
        <time>2014-07-01T07:10:00.089Z</time>
      </trkpt>
      <trkpt lat="45.21962" lon="6.41321">
        <ele>1739.7</ele>
        <time>2014-07-01T07:10:01.133Z</time>
      </trkpt>
      <trkpt lat="45.21967" lon="6.41321">
        <ele>1739.4</ele>
        <time>2014-07-01T07:10:02.123Z</time>
      </trkpt>
      <trkpt lat="45.21972" lon="6.41321">
        <ele>1738.9</ele>
        <time>2014-07-01T07:10:03.093Z</time>
      </trkpt>
      <trkpt lat="45.21977" lon="6.4132">
        <ele>1738.5</ele>
        <time>2014-07-01T07:10:04.108Z</time>
      </trkpt>
      <trkpt lat="45.21983" lon="6.41319">
        <ele>1738.1</ele>
        <time>2014-07-01T07:10:05.125Z</time>
      </trkpt>
      <trkpt lat="45.21989" lon="6.41317">
        <ele>1737.7</ele>
        <time>2014-07-01T07:10:06.123Z</time>
      </trkpt>
      <trkpt lat="45.21995" lon="6.41315">
        <ele>1737.2</ele>
        <time>2014-07-01T07:10:07.134Z</time>
      </trkpt>
      <trkpt lat="45.22" lon="6.41311">
        <ele>1736.7</ele>
        <time>2014-07-01T07:10:08.151Z</time>
      </trkpt>
      <trkpt lat="45.22005" lon="6.41308">
        <ele>1736.2</ele>
        <time>2014-07-01T07:10:09.112Z</time>
      </trkpt>
      <trkpt lat="45.22009" lon="6.41305">
        <ele>1735.8</ele>
        <time>2014-07-01T07:10:10.137Z</time>
      </trkpt>
      <trkpt lat="45.22013" lon="6.413">
        <ele>1735.4</ele>
        <time>2014-07-01T07:10:11.123Z</time>
      </trkpt>
      <trkpt lat="45.22017" lon="6.41295">
        <ele>1735</ele>
        <time>2014-07-01T07:10:12.135Z</time>
      </trkpt>
      <trkpt lat="45.22023" lon="6.41289">
        <ele>1734</ele>
        <time>2014-07-01T07:10:13.134Z</time>
      </trkpt>
      <trkpt lat="45.22028" lon="6.41283">
        <ele>1733.2</ele>
        <time>2014-07-01T07:10:14.144Z</time>
      </trkpt>
      <trkpt lat="45.22033" lon="6.41277">
        <ele>1732.7</ele>
        <time>2014-07-01T07:10:15.150Z</time>
      </trkpt>
      <trkpt lat="45.22037" lon="6.41271">
        <ele>1732.2</ele>
        <time>2014-07-01T07:10:16.158Z</time>
      </trkpt>
      <trkpt lat="45.22043" lon="6.41265">
        <ele>1731.3</ele>
        <time>2014-07-01T07:10:17.129Z</time>
      </trkpt>
      <trkpt lat="45.22048" lon="6.41259">
        <ele>1730.5</ele>
        <time>2014-07-01T07:10:18.119Z</time>
      </trkpt>
      <trkpt lat="45.22053" lon="6.41253">
        <ele>1730.3</ele>
        <time>2014-07-01T07:10:19.112Z</time>
      </trkpt>
      <trkpt lat="45.22057" lon="6.41248">
        <ele>1729.8</ele>
        <time>2014-07-01T07:10:20.122Z</time>
      </trkpt>
      <trkpt lat="45.22062" lon="6.41242">
        <ele>1729.2</ele>
        <time>2014-07-01T07:10:21.128Z</time>
      </trkpt>
      <trkpt lat="45.22067" lon="6.41235">
        <ele>1728.6</ele>
        <time>2014-07-01T07:10:22.128Z</time>
      </trkpt>
      <trkpt lat="45.22072" lon="6.4123">
        <ele>1728.4</ele>
        <time>2014-07-01T07:10:23.148Z</time>
      </trkpt>
      <trkpt lat="45.22076" lon="6.41225">
        <ele>1728.4</ele>
        <time>2014-07-01T07:10:24.133Z</time>
      </trkpt>
      <trkpt lat="45.2208" lon="6.4122">
        <ele>1728.3</ele>
        <time>2014-07-01T07:10:25.182Z</time>
      </trkpt>
      <trkpt lat="45.22084" lon="6.41215">
        <ele>1728.2</ele>
        <time>2014-07-01T07:10:26.160Z</time>
      </trkpt>
      <trkpt lat="45.22089" lon="6.4121">
        <ele>1728.1</ele>
        <time>2014-07-01T07:10:27.149Z</time>
      </trkpt>
      <trkpt lat="45.22093" lon="6.41206">
        <ele>1728.1</ele>
        <time>2014-07-01T07:10:28.132Z</time>
      </trkpt>
      <trkpt lat="45.22097" lon="6.41202">
        <ele>1728</ele>
        <time>2014-07-01T07:10:29.126Z</time>
      </trkpt>
      <trkpt lat="45.22104" lon="6.41194">
        <ele>1727.8</ele>
        <time>2014-07-01T07:10:31.119Z</time>
      </trkpt>
      <trkpt lat="45.22108" lon="6.41191">
        <ele>1727.8</ele>
        <time>2014-07-01T07:10:32.136Z</time>
      </trkpt>
      <trkpt lat="45.22112" lon="6.41188">
        <ele>1727.7</ele>
        <time>2014-07-01T07:10:33.072Z</time>
      </trkpt>
      <trkpt lat="45.22116" lon="6.41185">
        <ele>1727.6</ele>
        <time>2014-07-01T07:10:34.119Z</time>
      </trkpt>
      <trkpt lat="45.22124" lon="6.4118">
        <ele>1727.2</ele>
        <time>2014-07-01T07:10:36.103Z</time>
      </trkpt>
      <trkpt lat="45.22128" lon="6.41178">
        <ele>1727</ele>
        <time>2014-07-01T07:10:37.119Z</time>
      </trkpt>
      <trkpt lat="45.22133" lon="6.41177">
        <ele>1726.8</ele>
        <time>2014-07-01T07:10:38.104Z</time>
      </trkpt>
      <trkpt lat="45.22139" lon="6.41175">
        <ele>1726.6</ele>
        <time>2014-07-01T07:10:39.113Z</time>
      </trkpt>
      <trkpt lat="45.22144" lon="6.41172">
        <ele>1726.4</ele>
        <time>2014-07-01T07:10:40.113Z</time>
      </trkpt>
      <trkpt lat="45.2215" lon="6.41169">
        <ele>1726.1</ele>
        <time>2014-07-01T07:10:41.111Z</time>
      </trkpt>
      <trkpt lat="45.22157" lon="6.41165">
        <ele>1725.1</ele>
        <time>2014-07-01T07:10:42.124Z</time>
      </trkpt>
      <trkpt lat="45.22164" lon="6.4116">
        <ele>1724.4</ele>
        <time>2014-07-01T07:10:43.139Z</time>
      </trkpt>
      <trkpt lat="45.2217" lon="6.41155">
        <ele>1723.9</ele>
        <time>2014-07-01T07:10:44.158Z</time>
      </trkpt>
      <trkpt lat="45.22176" lon="6.4115">
        <ele>1723.4</ele>
        <time>2014-07-01T07:10:45.146Z</time>
      </trkpt>
      <trkpt lat="45.22181" lon="6.41145">
        <ele>1723</ele>
        <time>2014-07-01T07:10:46.143Z</time>
      </trkpt>
      <trkpt lat="45.22188" lon="6.4114">
        <ele>1722.7</ele>
        <time>2014-07-01T07:10:47.120Z</time>
      </trkpt>
      <trkpt lat="45.22195" lon="6.41136">
        <ele>1722.3</ele>
        <time>2014-07-01T07:10:48.120Z</time>
      </trkpt>
      <trkpt lat="45.22202" lon="6.41132">
        <ele>1721.8</ele>
        <time>2014-07-01T07:10:49.139Z</time>
      </trkpt>
      <trkpt lat="45.2221" lon="6.41129">
        <ele>1721.2</ele>
        <time>2014-07-01T07:10:50.134Z</time>
      </trkpt>
      <trkpt lat="45.22219" lon="6.41125">
        <ele>1720.4</ele>
        <time>2014-07-01T07:10:51.144Z</time>
      </trkpt>
      <trkpt lat="45.22227" lon="6.4112">
        <ele>1719.3</ele>
        <time>2014-07-01T07:10:52.139Z</time>
      </trkpt>
      <trkpt lat="45.22235" lon="6.41116">
        <ele>1718.4</ele>
        <time>2014-07-01T07:10:53.134Z</time>
      </trkpt>
      <trkpt lat="45.22242" lon="6.41111">
        <ele>1717.5</ele>
        <time>2014-07-01T07:10:54.174Z</time>
      </trkpt>
      <trkpt lat="45.22248" lon="6.41106">
        <ele>1716.7</ele>
        <time>2014-07-01T07:10:55.144Z</time>
      </trkpt>
      <trkpt lat="45.22254" lon="6.41101">
        <ele>1716.2</ele>
        <time>2014-07-01T07:10:56.149Z</time>
      </trkpt>
      <trkpt lat="45.22259" lon="6.41097">
        <ele>1715.8</ele>
        <time>2014-07-01T07:10:57.127Z</time>
      </trkpt>
      <trkpt lat="45.22263" lon="6.41093">
        <ele>1715.4</ele>
        <time>2014-07-01T07:10:58.148Z</time>
      </trkpt>
      <trkpt lat="45.22268" lon="6.41089">
        <ele>1715.1</ele>
        <time>2014-07-01T07:10:59.125Z</time>
      </trkpt>
      <trkpt lat="45.22272" lon="6.41085">
        <ele>1714.8</ele>
        <time>2014-07-01T07:11:00.081Z</time>
      </trkpt>
      <trkpt lat="45.22277" lon="6.4108">
        <ele>1714.5</ele>
        <time>2014-07-01T07:11:01.149Z</time>
      </trkpt>
      <trkpt lat="45.22282" lon="6.41075">
        <ele>1714.2</ele>
        <time>2014-07-01T07:11:02.086Z</time>
      </trkpt>
      <trkpt lat="45.22288" lon="6.41069">
        <ele>1713.8</ele>
        <time>2014-07-01T07:11:03.112Z</time>
      </trkpt>
      <trkpt lat="45.22293" lon="6.41064">
        <ele>1713.5</ele>
        <time>2014-07-01T07:11:04.077Z</time>
      </trkpt>
      <trkpt lat="45.22298" lon="6.41057">
        <ele>1713.2</ele>
        <time>2014-07-01T07:11:05.078Z</time>
      </trkpt>
      <trkpt lat="45.22303" lon="6.4105">
        <ele>1712.9</ele>
        <time>2014-07-01T07:11:06.116Z</time>
      </trkpt>
      <trkpt lat="45.22307" lon="6.41041">
        <ele>1712.8</ele>
        <time>2014-07-01T07:11:07.124Z</time>
      </trkpt>
      <trkpt lat="45.22311" lon="6.41033">
        <ele>1712.6</ele>
        <time>2014-07-01T07:11:08.109Z</time>
      </trkpt>
      <trkpt lat="45.22315" lon="6.41025">
        <ele>1712.2</ele>
        <time>2014-07-01T07:11:09.110Z</time>
      </trkpt>
      <trkpt lat="45.22318" lon="6.41017">
        <ele>1711.9</ele>
        <time>2014-07-01T07:11:10.114Z</time>
      </trkpt>
      <trkpt lat="45.22322" lon="6.41008">
        <ele>1711.7</ele>
        <time>2014-07-01T07:11:11.136Z</time>
      </trkpt>
      <trkpt lat="45.22326" lon="6.41">
        <ele>1711.3</ele>
        <time>2014-07-01T07:11:12.118Z</time>
      </trkpt>
      <trkpt lat="45.2233" lon="6.40991">
        <ele>1710.9</ele>
        <time>2014-07-01T07:11:13.148Z</time>
      </trkpt>
      <trkpt lat="45.22333" lon="6.40983">
        <ele>1710.8</ele>
        <time>2014-07-01T07:11:14.161Z</time>
      </trkpt>
      <trkpt lat="45.22336" lon="6.40975">
        <ele>1710.6</ele>
        <time>2014-07-01T07:11:15.126Z</time>
      </trkpt>
      <trkpt lat="45.22339" lon="6.40968">
        <ele>1710.4</ele>
        <time>2014-07-01T07:11:16.140Z</time>
      </trkpt>
      <trkpt lat="45.22342" lon="6.40961">
        <ele>1710.2</ele>
        <time>2014-07-01T07:11:17.118Z</time>
      </trkpt>
      <trkpt lat="45.22345" lon="6.40954">
        <ele>1710.4</ele>
        <time>2014-07-01T07:11:18.125Z</time>
      </trkpt>
      <trkpt lat="45.22348" lon="6.40947">
        <ele>1710.5</ele>
        <time>2014-07-01T07:11:19.171Z</time>
      </trkpt>
      <trkpt lat="45.22352" lon="6.4094">
        <ele>1710.5</ele>
        <time>2014-07-01T07:11:20.123Z</time>
      </trkpt>
      <trkpt lat="45.22355" lon="6.40932">
        <ele>1710.5</ele>
        <time>2014-07-01T07:11:21.127Z</time>
      </trkpt>
      <trkpt lat="45.22358" lon="6.40925">
        <ele>1710.5</ele>
        <time>2014-07-01T07:11:22.087Z</time>
      </trkpt>
      <trkpt lat="45.22361" lon="6.40917">
        <ele>1710.4</ele>
        <time>2014-07-01T07:11:23.120Z</time>
      </trkpt>
      <trkpt lat="45.22364" lon="6.40908">
        <ele>1710.4</ele>
        <time>2014-07-01T07:11:24.131Z</time>
      </trkpt>
      <trkpt lat="45.22367" lon="6.409">
        <ele>1710.6</ele>
        <time>2014-07-01T07:11:25.148Z</time>
      </trkpt>
      <trkpt lat="45.2237" lon="6.40892">
        <ele>1710.7</ele>
        <time>2014-07-01T07:11:26.124Z</time>
      </trkpt>
      <trkpt lat="45.22372" lon="6.40884">
        <ele>1710.7</ele>
        <time>2014-07-01T07:11:27.123Z</time>
      </trkpt>
      <trkpt lat="45.22374" lon="6.40875">
        <ele>1710.7</ele>
        <time>2014-07-01T07:11:28.123Z</time>
      </trkpt>
      <trkpt lat="45.22375" lon="6.40866">
        <ele>1710.6</ele>
        <time>2014-07-01T07:11:29.120Z</time>
      </trkpt>
      <trkpt lat="45.22376" lon="6.40856">
        <ele>1710.3</ele>
        <time>2014-07-01T07:11:30.123Z</time>
      </trkpt>
      <trkpt lat="45.22378" lon="6.40847">
        <ele>1710</ele>
        <time>2014-07-01T07:11:31.123Z</time>
      </trkpt>
      <trkpt lat="45.22379" lon="6.40838">
        <ele>1709.5</ele>
        <time>2014-07-01T07:11:32.118Z</time>
      </trkpt>
      <trkpt lat="45.2238" lon="6.40829">
        <ele>1709.1</ele>
        <time>2014-07-01T07:11:33.125Z</time>
      </trkpt>
      <trkpt lat="45.22381" lon="6.40821">
        <ele>1708.8</ele>
        <time>2014-07-01T07:11:34.128Z</time>
      </trkpt>
      <trkpt lat="45.22381" lon="6.40813">
        <ele>1708.5</ele>
        <time>2014-07-01T07:11:35.130Z</time>
      </trkpt>
      <trkpt lat="45.22382" lon="6.40805">
        <ele>1708.3</ele>
        <time>2014-07-01T07:11:36.137Z</time>
      </trkpt>
      <trkpt lat="45.22384" lon="6.40796">
        <ele>1707.9</ele>
        <time>2014-07-01T07:11:37.141Z</time>
      </trkpt>
      <trkpt lat="45.22385" lon="6.40788">
        <ele>1707.8</ele>
        <time>2014-07-01T07:11:38.108Z</time>
      </trkpt>
      <trkpt lat="45.22386" lon="6.40779">
        <ele>1707.7</ele>
        <time>2014-07-01T07:11:39.122Z</time>
      </trkpt>
      <trkpt lat="45.22387" lon="6.40771">
        <ele>1707.6</ele>
        <time>2014-07-01T07:11:40.135Z</time>
      </trkpt>
      <trkpt lat="45.22388" lon="6.40763">
        <ele>1707.6</ele>
        <time>2014-07-01T07:11:41.121Z</time>
      </trkpt>
      <trkpt lat="45.22388" lon="6.40756">
        <ele>1707.3</ele>
        <time>2014-07-01T07:11:42.116Z</time>
      </trkpt>
      <trkpt lat="45.22389" lon="6.40748">
        <ele>1707</ele>
        <time>2014-07-01T07:11:43.128Z</time>
      </trkpt>
      <trkpt lat="45.22389" lon="6.40741">
        <ele>1706.6</ele>
        <time>2014-07-01T07:11:44.163Z</time>
      </trkpt>
      <trkpt lat="45.2239" lon="6.40732">
        <ele>1706.4</ele>
        <time>2014-07-01T07:11:45.088Z</time>
      </trkpt>
      <trkpt lat="45.22391" lon="6.40724">
        <ele>1706.2</ele>
        <time>2014-07-01T07:11:46.117Z</time>
      </trkpt>
      <trkpt lat="45.22392" lon="6.40716">
        <ele>1706</ele>
        <time>2014-07-01T07:11:47.123Z</time>
      </trkpt>
      <trkpt lat="45.22393" lon="6.40706">
        <ele>1705.7</ele>
        <time>2014-07-01T07:11:48.128Z</time>
      </trkpt>
      <trkpt lat="45.22395" lon="6.40696">
        <ele>1705.5</ele>
        <time>2014-07-01T07:11:49.146Z</time>
      </trkpt>
      <trkpt lat="45.22395" lon="6.40688">
        <ele>1705.3</ele>
        <time>2014-07-01T07:11:50.127Z</time>
      </trkpt>
      <trkpt lat="45.22396" lon="6.4068">
        <ele>1705.1</ele>
        <time>2014-07-01T07:11:51.142Z</time>
      </trkpt>
      <trkpt lat="45.22397" lon="6.40672">
        <ele>1704.8</ele>
        <time>2014-07-01T07:11:52.128Z</time>
      </trkpt>
      <trkpt lat="45.22397" lon="6.40665">
        <ele>1704.5</ele>
        <time>2014-07-01T07:11:53.141Z</time>
      </trkpt>
      <trkpt lat="45.22395" lon="6.40658">
        <ele>1704.4</ele>
        <time>2014-07-01T07:11:54.130Z</time>
      </trkpt>
      <trkpt lat="45.22395" lon="6.40651">
        <ele>1704.4</ele>
        <time>2014-07-01T07:11:55.131Z</time>
      </trkpt>
      <trkpt lat="45.22395" lon="6.40643">
        <ele>1704.6</ele>
        <time>2014-07-01T07:11:56.141Z</time>
      </trkpt>
      <trkpt lat="45.22397" lon="6.40634">
        <ele>1704.7</ele>
        <time>2014-07-01T07:11:57.085Z</time>
      </trkpt>
      <trkpt lat="45.224" lon="6.40626">
        <ele>1704.7</ele>
        <time>2014-07-01T07:11:58.123Z</time>
      </trkpt>
      <trkpt lat="45.22405" lon="6.40618">
        <ele>1704.4</ele>
        <time>2014-07-01T07:11:59.139Z</time>
      </trkpt>
      <trkpt lat="45.22409" lon="6.40611">
        <ele>1704</ele>
        <time>2014-07-01T07:12:00.073Z</time>
      </trkpt>
      <trkpt lat="45.22414" lon="6.40605">
        <ele>1703.6</ele>
        <time>2014-07-01T07:12:01.139Z</time>
      </trkpt>
      <trkpt lat="45.22419" lon="6.406">
        <ele>1703.1</ele>
        <time>2014-07-01T07:12:02.120Z</time>
      </trkpt>
      <trkpt lat="45.22424" lon="6.40595">
        <ele>1702.6</ele>
        <time>2014-07-01T07:12:03.120Z</time>
      </trkpt>
      <trkpt lat="45.22429" lon="6.40589">
        <ele>1702.1</ele>
        <time>2014-07-01T07:12:04.120Z</time>
      </trkpt>
      <trkpt lat="45.22434" lon="6.40583">
        <ele>1701.7</ele>
        <time>2014-07-01T07:12:05.123Z</time>
      </trkpt>
      <trkpt lat="45.2244" lon="6.40577">
        <ele>1701.3</ele>
        <time>2014-07-01T07:12:06.123Z</time>
      </trkpt>
      <trkpt lat="45.22445" lon="6.4057">
        <ele>1700.7</ele>
        <time>2014-07-01T07:12:07.129Z</time>
      </trkpt>
      <trkpt lat="45.22451" lon="6.40563">
        <ele>1700.2</ele>
        <time>2014-07-01T07:12:08.133Z</time>
      </trkpt>
      <trkpt lat="45.22457" lon="6.40556">
        <ele>1699.8</ele>
        <time>2014-07-01T07:12:09.143Z</time>
      </trkpt>
      <trkpt lat="45.22462" lon="6.40549">
        <ele>1699.5</ele>
        <time>2014-07-01T07:12:10.127Z</time>
      </trkpt>
      <trkpt lat="45.22467" lon="6.40542">
        <ele>1699</ele>
        <time>2014-07-01T07:12:11.127Z</time>
      </trkpt>
      <trkpt lat="45.22471" lon="6.40536">
        <ele>1698.8</ele>
        <time>2014-07-01T07:12:12.138Z</time>
      </trkpt>
      <trkpt lat="45.22475" lon="6.40528">
        <ele>1698.5</ele>
        <time>2014-07-01T07:12:13.141Z</time>
      </trkpt>
      <trkpt lat="45.22479" lon="6.4052">
        <ele>1698.3</ele>
        <time>2014-07-01T07:12:14.125Z</time>
      </trkpt>
      <trkpt lat="45.22482" lon="6.40512">
        <ele>1697.7</ele>
        <time>2014-07-01T07:12:15.118Z</time>
      </trkpt>
      <trkpt lat="45.22486" lon="6.40504">
        <ele>1696.8</ele>
        <time>2014-07-01T07:12:16.118Z</time>
      </trkpt>
      <trkpt lat="45.22491" lon="6.40497">
        <ele>1696.2</ele>
        <time>2014-07-01T07:12:17.103Z</time>
      </trkpt>
      <trkpt lat="45.22496" lon="6.4049">
        <ele>1695.8</ele>
        <time>2014-07-01T07:12:18.118Z</time>
      </trkpt>
      <trkpt lat="45.22502" lon="6.40483">
        <ele>1695.4</ele>
        <time>2014-07-01T07:12:19.148Z</time>
      </trkpt>
      <trkpt lat="45.22508" lon="6.40477">
        <ele>1694.9</ele>
        <time>2014-07-01T07:12:20.119Z</time>
      </trkpt>
      <trkpt lat="45.22513" lon="6.40471">
        <ele>1694.6</ele>
        <time>2014-07-01T07:12:21.116Z</time>
      </trkpt>
      <trkpt lat="45.22519" lon="6.40466">
        <ele>1694.1</ele>
        <time>2014-07-01T07:12:22.123Z</time>
      </trkpt>
      <trkpt lat="45.22526" lon="6.40461">
        <ele>1693.7</ele>
        <time>2014-07-01T07:12:23.124Z</time>
      </trkpt>
      <trkpt lat="45.22532" lon="6.40455">
        <ele>1693.3</ele>
        <time>2014-07-01T07:12:24.131Z</time>
      </trkpt>
      <trkpt lat="45.22537" lon="6.4045">
        <ele>1692.9</ele>
        <time>2014-07-01T07:12:25.146Z</time>
      </trkpt>
      <trkpt lat="45.22542" lon="6.40445">
        <ele>1692.3</ele>
        <time>2014-07-01T07:12:26.135Z</time>
      </trkpt>
      <trkpt lat="45.22546" lon="6.40439">
        <ele>1691</ele>
        <time>2014-07-01T07:12:27.153Z</time>
      </trkpt>
      <trkpt lat="45.22549" lon="6.40434">
        <ele>1689.9</ele>
        <time>2014-07-01T07:12:28.117Z</time>
      </trkpt>
      <trkpt lat="45.22554" lon="6.4043">
        <ele>1689.2</ele>
        <time>2014-07-01T07:12:29.124Z</time>
      </trkpt>
      <trkpt lat="45.22559" lon="6.40427">
        <ele>1688.6</ele>
        <time>2014-07-01T07:12:30.119Z</time>
      </trkpt>
      <trkpt lat="45.22564" lon="6.40427">
        <ele>1687.9</ele>
        <time>2014-07-01T07:12:31.130Z</time>
      </trkpt>
      <trkpt lat="45.22569" lon="6.40428">
        <ele>1687.4</ele>
        <time>2014-07-01T07:12:32.146Z</time>
      </trkpt>
      <trkpt lat="45.22575" lon="6.40431">
        <ele>1687</ele>
        <time>2014-07-01T07:12:33.122Z</time>
      </trkpt>
      <trkpt lat="45.2258" lon="6.40435">
        <ele>1686.6</ele>
        <time>2014-07-01T07:12:34.125Z</time>
      </trkpt>
      <trkpt lat="45.22585" lon="6.40441">
        <ele>1686.3</ele>
        <time>2014-07-01T07:12:35.118Z</time>
      </trkpt>
      <trkpt lat="45.22591" lon="6.40447">
        <ele>1686</ele>
        <time>2014-07-01T07:12:36.142Z</time>
      </trkpt>
      <trkpt lat="45.22595" lon="6.40454">
        <ele>1685.5</ele>
        <time>2014-07-01T07:12:37.128Z</time>
      </trkpt>
      <trkpt lat="45.22599" lon="6.40459">
        <ele>1684.8</ele>
        <time>2014-07-01T07:12:38.124Z</time>
      </trkpt>
      <trkpt lat="45.22603" lon="6.40465">
        <ele>1683.5</ele>
        <time>2014-07-01T07:12:39.079Z</time>
      </trkpt>
      <trkpt lat="45.22607" lon="6.40471">
        <ele>1682.2</ele>
        <time>2014-07-01T07:12:40.087Z</time>
      </trkpt>
      <trkpt lat="45.22611" lon="6.40476">
        <ele>1681.3</ele>
        <time>2014-07-01T07:12:41.117Z</time>
      </trkpt>
      <trkpt lat="45.22616" lon="6.40481">
        <ele>1680.8</ele>
        <time>2014-07-01T07:12:42.124Z</time>
      </trkpt>
      <trkpt lat="45.22621" lon="6.40486">
        <ele>1680.5</ele>
        <time>2014-07-01T07:12:43.139Z</time>
      </trkpt>
      <trkpt lat="45.22626" lon="6.4049">
        <ele>1679.9</ele>
        <time>2014-07-01T07:12:44.093Z</time>
      </trkpt>
      <trkpt lat="45.22631" lon="6.40493">
        <ele>1679.4</ele>
        <time>2014-07-01T07:12:45.115Z</time>
      </trkpt>
      <trkpt lat="45.22637" lon="6.40494">
        <ele>1678.7</ele>
        <time>2014-07-01T07:12:46.117Z</time>
      </trkpt>
      <trkpt lat="45.22642" lon="6.40494">
        <ele>1678</ele>
        <time>2014-07-01T07:12:47.124Z</time>
      </trkpt>
      <trkpt lat="45.22648" lon="6.40493">
        <ele>1677.5</ele>
        <time>2014-07-01T07:12:48.145Z</time>
      </trkpt>
      <trkpt lat="45.22654" lon="6.40491">
        <ele>1677</ele>
        <time>2014-07-01T07:12:49.160Z</time>
      </trkpt>
      <trkpt lat="45.2266" lon="6.40489">
        <ele>1676.1</ele>
        <time>2014-07-01T07:12:50.149Z</time>
      </trkpt>
      <trkpt lat="45.22665" lon="6.40487">
        <ele>1675.5</ele>
        <time>2014-07-01T07:12:51.149Z</time>
      </trkpt>
      <trkpt lat="45.22669" lon="6.40485">
        <ele>1674.8</ele>
        <time>2014-07-01T07:12:52.132Z</time>
      </trkpt>
      <trkpt lat="45.22674" lon="6.40484">
        <ele>1674.6</ele>
        <time>2014-07-01T07:12:53.132Z</time>
      </trkpt>
      <trkpt lat="45.2268" lon="6.40482">
        <ele>1674.7</ele>
        <time>2014-07-01T07:12:54.147Z</time>
      </trkpt>
      <trkpt lat="45.22686" lon="6.40481">
        <ele>1674.3</ele>
        <time>2014-07-01T07:12:55.148Z</time>
      </trkpt>
      <trkpt lat="45.22692" lon="6.40479">
        <ele>1673.5</ele>
        <time>2014-07-01T07:12:56.129Z</time>
      </trkpt>
      <trkpt lat="45.22697" lon="6.40479">
        <ele>1673.2</ele>
        <time>2014-07-01T07:12:57.145Z</time>
      </trkpt>
      <trkpt lat="45.22702" lon="6.4048">
        <ele>1673.2</ele>
        <time>2014-07-01T07:12:58.146Z</time>
      </trkpt>
      <trkpt lat="45.22709" lon="6.40485">
        <ele>1672.2</ele>
        <time>2014-07-01T07:13:00.105Z</time>
      </trkpt>
      <trkpt lat="45.22712" lon="6.40488">
        <ele>1671.7</ele>
        <time>2014-07-01T07:13:01.149Z</time>
      </trkpt>
      <trkpt lat="45.22717" lon="6.40498">
        <ele>1669.9</ele>
        <time>2014-07-01T07:13:03.131Z</time>
      </trkpt>
      <trkpt lat="45.2272" lon="6.40504">
        <ele>1669.1</ele>
        <time>2014-07-01T07:13:04.128Z</time>
      </trkpt>
      <trkpt lat="45.22724" lon="6.40509">
        <ele>1668.5</ele>
        <time>2014-07-01T07:13:05.129Z</time>
      </trkpt>
      <trkpt lat="45.22728" lon="6.40512">
        <ele>1668</ele>
        <time>2014-07-01T07:13:06.124Z</time>
      </trkpt>
      <trkpt lat="45.22732" lon="6.40514">
        <ele>1667.5</ele>
        <time>2014-07-01T07:13:07.127Z</time>
      </trkpt>
      <trkpt lat="45.22736" lon="6.40516">
        <ele>1667.1</ele>
        <time>2014-07-01T07:13:08.126Z</time>
      </trkpt>
      <trkpt lat="45.22743" lon="6.40518">
        <ele>1665.4</ele>
        <time>2014-07-01T07:13:10.113Z</time>
      </trkpt>
      <trkpt lat="45.22746" lon="6.40522">
        <ele>1665.1</ele>
        <time>2014-07-01T07:13:11.111Z</time>
      </trkpt>
      <trkpt lat="45.22751" lon="6.4053">
        <ele>1665</ele>
        <time>2014-07-01T07:13:13.123Z</time>
      </trkpt>
      <trkpt lat="45.22752" lon="6.40534">
        <ele>1664.8</ele>
        <time>2014-07-01T07:13:14.125Z</time>
      </trkpt>
      <trkpt lat="45.22755" lon="6.40543">
        <ele>1664.4</ele>
        <time>2014-07-01T07:13:16.124Z</time>
      </trkpt>
      <trkpt lat="45.22757" lon="6.40546">
        <ele>1664.3</ele>
        <time>2014-07-01T07:13:17.124Z</time>
      </trkpt>
      <trkpt lat="45.22764" lon="6.40543">
        <ele>1664.1</ele>
        <time>2014-07-01T07:13:20.149Z</time>
      </trkpt>
      <trkpt lat="45.22766" lon="6.40539">
        <ele>1664.1</ele>
        <time>2014-07-01T07:13:21.130Z</time>
      </trkpt>
      <trkpt lat="45.22771" lon="6.40531">
        <ele>1664.2</ele>
        <time>2014-07-01T07:13:24.133Z</time>
      </trkpt>
      <trkpt lat="45.22774" lon="6.4053">
        <ele>1664.3</ele>
        <time>2014-07-01T07:13:25.140Z</time>
      </trkpt>
      <trkpt lat="45.2278" lon="6.40532">
        <ele>1664.4</ele>
        <time>2014-07-01T07:13:27.125Z</time>
      </trkpt>
      <trkpt lat="45.22783" lon="6.40533">
        <ele>1664.5</ele>
        <time>2014-07-01T07:13:28.124Z</time>
      </trkpt>
      <trkpt lat="45.2279" lon="6.40534">
        <ele>1664.5</ele>
        <time>2014-07-01T07:13:30.117Z</time>
      </trkpt>
      <trkpt lat="45.22794" lon="6.40535">
        <ele>1664.6</ele>
        <time>2014-07-01T07:13:31.128Z</time>
      </trkpt>
      <trkpt lat="45.22801" lon="6.40539">
        <ele>1664.5</ele>
        <time>2014-07-01T07:13:33.113Z</time>
      </trkpt>
      <trkpt lat="45.22803" lon="6.40542">
        <ele>1664.4</ele>
        <time>2014-07-01T07:13:34.110Z</time>
      </trkpt>
      <trkpt lat="45.22806" lon="6.40553">
        <ele>1664.3</ele>
        <time>2014-07-01T07:13:38.127Z</time>
      </trkpt>
      <trkpt lat="45.22805" lon="6.40556">
        <ele>1664.2</ele>
        <time>2014-07-01T07:13:39.122Z</time>
      </trkpt>
      <trkpt lat="45.22802" lon="6.40565">
        <ele>1663.8</ele>
        <time>2014-07-01T07:13:41.126Z</time>
      </trkpt>
      <trkpt lat="45.228" lon="6.4057">
        <ele>1663.5</ele>
        <time>2014-07-01T07:13:42.112Z</time>
      </trkpt>
      <trkpt lat="45.22794" lon="6.40578">
        <ele>1663.1</ele>
        <time>2014-07-01T07:13:45.129Z</time>
      </trkpt>
      <trkpt lat="45.22793" lon="6.40579">
        <ele>1663</ele>
        <time>2014-07-01T07:13:46.142Z</time>
      </trkpt>
      <trkpt lat="45.22792" lon="6.4058">
        <ele>1662.5</ele>
        <time>2014-07-01T07:13:52.142Z</time>
      </trkpt>
      <trkpt lat="45.22792" lon="6.4058">
        <ele>1662.5</ele>
        <time>2014-07-01T07:13:53.142Z</time>
      </trkpt>
      <trkpt lat="45.22792" lon="6.4058">
        <ele>1662.5</ele>
        <time>2014-07-01T07:14:09.154Z</time>
      </trkpt>
    </trkseg>
  </trk>
</gpx>